PD939 / C-GLQO 7700 Squawk Report (17th of July, 2019)

Aircraft DH8D Reg No. C-GLQO Age N/A
Model DHC-8 Turboprop engines 2 First flight N/A
Registered 06-08-09 Rollout N/A Delivered 16-09-09
Construction No. 4270 Line No. N/A Series Q-402
ADSHEX C06363 Airline name Porter Airlines Owner N/A
Airfield based Toronto-City Airport~ON~C First tracked 2017-07-13 23:32:00
Time Lat Lon Altitude Heading Speed Vertical Rate
2019-07-17 17:26:22 GMT 42.368820 -71.017220 0 315 9 0
2019-07-17 17:26:05 GMT 42.369312 -71.016327 0 315 15 0
2019-07-17 17:25:56 GMT 42.369881 -71.015831 0 315 15 0
2019-07-17 17:25:45 GMT 42.370426 -71.015289 0 315 14 0
2019-07-17 17:25:21 GMT 42.369110 -71.013054 0 315 22 0
2019-07-17 17:25:13 GMT 42.368614 -71.012383 0 315 21 0
2019-07-17 17:25:02 GMT 42.367924 -71.011520 0 19 17 0
2019-07-17 17:24:46 GMT 42.366611 -71.011742 0 19 19 0
2019-07-17 17:24:41 GMT 42.366165 -71.011971 0 19 21 0
2019-07-17 17:24:31 GMT 42.365158 -71.012444 0 19 21 0
2019-07-17 17:24:17 GMT 42.363991 -71.013008 0 267 17 0
2019-07-17 17:24:05 GMT 42.363258 -71.012909 0 267 13 0
2019-07-17 17:23:58 GMT 42.363041 -71.012428 0 267 15 0
2019-07-17 17:23:48 GMT 42.362713 -71.011696 0 244 16 0
2019-07-17 17:23:39 GMT 42.362457 -71.011009 0 267 5 0
2019-07-17 17:23:27 GMT 42.362423 -71.010895 0 267 0 0
2019-07-17 17:23:06 GMT 42.362419 -71.010895 0 244 0 0
2019-07-17 17:22:57 GMT 42.362431 -71.010895 0 267 0 0
2019-07-17 17:22:46 GMT 42.362366 -71.010696 0 267 5 0
2019-07-17 17:22:35 GMT 42.362251 -71.010353 0 267 7 0
2019-07-17 17:22:23 GMT 42.362091 -71.009880 0 267 10 0
2019-07-17 17:22:12 GMT 42.361794 -71.009010 0 267 15 0
2019-07-17 17:21:57 GMT 42.361408 -71.007660 0 267 22 0
2019-07-17 17:21:46 GMT 42.362606 -71.006218 0 199 48 0
2019-07-17 17:21:42 GMT 42.363457 -71.005806 0 199 58 0
2019-07-17 17:21:31 GMT 42.366669 -71.004257 0 199 94 0
2019-07-17 17:21:20 GMT 42.371979 -71.001701 50 201 125 -512
2019-07-17 17:21:14 GMT 42.376083 -70.999657 125 200 131 -704
2019-07-17 17:21:10 GMT 42.377747 -70.998833 150 200 130 -640
2019-07-17 17:21:03 GMT 42.381763 -70.996849 250 201 130 -896
2019-07-17 17:20:59 GMT 42.383789 -70.995834 275 200 129 -896
2019-07-17 17:20:53 GMT 42.387680 -70.994026 350 200 127 -832
2019-07-17 17:20:50 GMT 42.389511 -70.993156 400 200 126 -832
2019-07-17 17:20:42 GMT 42.393631 -70.991158 475 201 125 -896
2019-07-17 17:20:39 GMT 42.395279 -70.990341 525 201 125 -576
2019-07-17 17:20:32 GMT 42.399078 -70.988480 600 201 125 -576
2019-07-17 17:20:29 GMT 42.400990 -70.987518 600 201 125 -576
2019-07-17 17:20:21 GMT 42.405365 -70.985413 750 200 127 -640
2019-07-17 17:20:17 GMT 42.407089 -70.984665 750 200 127 -512
2019-07-17 17:20:12 GMT 42.410767 -70.982857 825 201 127 -384
2019-07-17 17:20:08 GMT 42.413048 -70.981773 850 200 128 -640
2019-07-17 17:20:01 GMT 42.416611 -70.979980 925 201 133 -640
2019-07-17 17:19:57 GMT 42.418442 -70.979050 950 201 135 -896
2019-07-17 17:19:54 GMT 42.420494 -70.978004 1,000 201 137 -832
2019-07-17 17:19:50 GMT 42.422516 -70.976990 1,050 200 141 -512
2019-07-17 17:19:46 GMT 42.425079 -70.975677 1,100 201 141 -640
2019-07-17 17:19:43 GMT 42.427185 -70.974678 1,125 200 140 -704
2019-07-17 17:19:39 GMT 42.429710 -70.973534 1,175 199 139 -576
2019-07-17 17:19:36 GMT 42.431305 -70.972801 1,200 200 140 -704
2019-07-17 17:19:33 GMT 42.433136 -70.971931 1,225 200 141 -704
2019-07-17 17:19:29 GMT 42.435436 -70.970787 1,300 200 147 -1152
2019-07-17 17:19:24 GMT 42.439255 -70.968933 1,375 200 149 -576
2019-07-17 17:19:20 GMT 42.442200 -70.967499 1,425 201 149 -1088
2019-07-17 17:19:15 GMT 42.444992 -70.966125 1,500 201 149 -896
2019-07-17 17:19:12 GMT 42.446331 -70.965424 1,550 201 150 -256
2019-07-17 17:19:02 GMT 42.453033 -70.962097 1,650 199 158 -1152
2019-07-17 17:18:55 GMT 42.458294 -70.959732 1,800 200 159 -512
2019-07-17 17:18:52 GMT 42.460388 -70.958778 1,800 200 159 -512
2019-07-17 17:18:42 GMT 42.467697 -70.955322 2,025 200 167 -640
2019-07-17 17:18:31 GMT 42.475891 -70.951332 2,125 201 173 -1600
2019-07-17 17:18:20 GMT 42.484085 -70.947281 2,500 200 172 -1984
2019-07-17 17:18:10 GMT 42.490860 -70.944031 2,750 200 161 -1408
2019-07-17 17:18:06 GMT 42.494202 -70.942467 2,875 199 160 -1152
2019-07-17 17:18:00 GMT 42.498505 -70.940529 3,025 198 160 -832
2019-07-17 17:17:56 GMT 42.501263 -70.939362 3,050 198 163 -320
2019-07-17 17:17:49 GMT 42.509361 -70.935844 3,075 200 171 -768
2019-07-17 17:17:39 GMT 42.513794 -70.933601 3,175 202 172 -1344
2019-07-17 17:17:36 GMT 42.517181 -70.931755 3,250 204 172 -1216
2019-07-17 17:17:28 GMT 42.521652 -70.929008 3,375 206 170 -1152
2019-07-17 17:17:23 GMT 42.525608 -70.926331 3,475 208 170 -1408
2019-07-17 17:17:18 GMT 42.529770 -70.923424 3,625 207 171 -1088
2019-07-17 17:17:12 GMT 42.533890 -70.920807 3,700 203 173 -1024
2019-07-17 17:17:08 GMT 42.536224 -70.919495 3,750 201 174 -1024
2019-07-17 17:17:04 GMT 42.539436 -70.917900 3,850 153 205 -512
2019-07-17 17:16:59 GMT 42.543274 -70.916252 3,950 195 176 -1088
2019-07-17 17:16:56 GMT 42.546463 -70.915085 3,950 195 176 -1088
2019-07-17 17:16:48 GMT 42.554565 -70.913429 4,100 185 178 -832
2019-07-17 17:16:37 GMT 42.563690 -70.914375 4,250 170 185 -448
2019-07-17 17:16:34 GMT 42.563690 -70.914375 4,250 169 187 -576
2019-07-17 17:16:28 GMT 42.568909 -70.915688 4,325 158 202 -640
2019-07-17 17:16:24 GMT 42.573048 -70.916809 4,575 166 196 -768
2019-07-17 17:16:18 GMT 42.577606 -70.918221 4,425 164 197 -768
2019-07-17 17:16:15 GMT 42.580772 -70.919434 4,475 163 199 -704
2019-07-17 17:16:12 GMT 42.582596 -70.920181 4,500 160 200 -640
2019-07-17 17:16:06 GMT 42.587570 -70.923012 4,550 153 205 -512
2019-07-17 17:16:03 GMT 42.591522 -70.925797 4,575 150 208 0
2019-07-17 17:15:56 GMT 42.596603 -70.929672 4,575 151 212 -576
2019-07-17 17:15:53 GMT 42.598938 -70.931358 4,600 151 213 -640
2019-07-17 17:15:50 GMT 42.603119 -70.934502 4,650 92 242 -512
2019-07-17 17:15:45 GMT 42.605347 -70.936157 4,675 150 216 -768
2019-07-17 17:15:42 GMT 42.608517 -70.938591 4,725 149 220 -704
2019-07-17 17:15:39 GMT 42.611206 -70.940781 4,750 148 223 -640
2019-07-17 17:15:36 GMT 42.613686 -70.942871 4,775 147 224 -512
2019-07-17 17:15:33 GMT 42.617085 -70.945938 4,825 142 225 -384
2019-07-17 17:15:30 GMT 42.618900 -70.947853 4,825 139 226 -448
2019-07-17 17:15:26 GMT 42.622055 -70.951515 4,850 134 227 -384
2019-07-17 17:15:23 GMT 42.624763 -70.955391 4,875 130 228 -448
2019-07-17 17:15:20 GMT 42.626633 -70.958755 4,900 121 230 -576
2019-07-17 17:15:15 GMT 42.628860 -70.963821 4,950 113 233 -704
2019-07-17 17:15:12 GMT 42.630295 -70.967995 5,000 97 240 -384
2019-07-17 17:15:09 GMT 42.631805 -70.973991 5,025 105 237 -448
2019-07-17 17:15:05 GMT 42.632538 -70.977814 5,025 102 238 -448
2019-07-17 17:15:02 GMT 42.633286 -70.983688 5,075 92 242 -512
2019-07-17 17:14:59 GMT 42.633331 -70.993462 5,075 86 244 -640
2019-07-17 17:14:55 GMT 42.633331 -70.993462 5,100 82 247 -640
2019-07-17 17:14:52 GMT 42.632950 -70.997025 5,125 76 251 -640
2019-07-17 17:14:49 GMT 42.632168 -71.001572 5,150 48 262 -704
2019-07-17 17:14:44 GMT 42.629932 -71.009171 5,175 63 257 -768
2019-07-17 17:14:38 GMT 42.622021 -71.022522 5,250 44 263 -640
2019-07-17 17:14:34 GMT 42.622021 -71.022522 5,300 40 264 -576
2019-07-17 17:14:29 GMT 42.616516 -71.027672 5,350 27 262 -704
2019-07-17 17:14:26 GMT 42.612381 -71.030571 5,400 25 260 -576
2019-07-17 17:14:21 GMT 42.608368 -71.032913 5,425 22 258 -448
2019-07-17 17:14:18 GMT 42.604248 -71.035164 5,450 21 258 -448
2019-07-17 17:14:13 GMT 42.599300 -71.037849 5,475 21 257 -512
2019-07-17 17:14:08 GMT 42.592621 -71.041466 5,550 21 257 -576
2019-07-17 17:14:02 GMT 42.587059 -71.044563 5,575 22 257 -704
2019-07-17 17:13:58 GMT 42.581314 -71.047707 5,650 22 253 -896
2019-07-17 17:13:52 GMT 42.576817 -71.050247 5,725 22 252 -896
2019-07-17 17:13:49 GMT 42.572983 -71.052330 5,775 22 246 -768
2019-07-17 17:13:46 GMT 42.569687 -71.054199 5,825 22 247 -768
2019-07-17 17:13:41 GMT 42.565319 -71.056633 5,875 22 244 -832
2019-07-17 17:13:38 GMT 42.558243 -71.060593 5,975 22 242 -640
2019-07-17 17:13:35 GMT 42.558243 -71.060593 5,975 22 239 -448
2019-07-17 17:13:32 GMT 42.554993 -71.062378 6,025 22 238 0
2019-07-17 17:13:29 GMT 42.547531 -71.066498 6,025 21 239 -64
2019-07-17 17:13:25 GMT 42.547531 -71.066498 6,025 21 239 -64
2019-07-17 17:13:21 GMT 42.544277 -71.068260 6,025 21 239 -64
2019-07-17 17:13:18 GMT 42.540756 -71.070122 6,025 21 239 0
2019-07-17 17:13:14 GMT 42.536957 -71.072182 6,025 21 239 -64
2019-07-17 17:13:08 GMT 42.529770 -71.076172 6,025 22 239 0
2019-07-17 17:13:04 GMT 42.525970 -71.078300 6,050 24 239 64
2019-07-17 17:12:59 GMT 42.521713 -71.080917 6,050 25 241 128
2019-07-17 17:12:56 GMT 42.519058 -71.082794 6,025 30 243 -64
2019-07-17 17:12:53 GMT 42.514618 -71.086472 6,025 36 246 -64
2019-07-17 17:12:50 GMT 42.512669 -71.088509 6,025 40 248 -64
2019-07-17 17:12:47 GMT 42.509949 -71.091782 6,025 45 250 0
2019-07-17 17:12:43 GMT 42.506973 -71.096397 6,025 58 255 128
2019-07-17 17:12:37 GMT 42.503403 -71.103767 6,025 63 257 128
2019-07-17 17:12:33 GMT 42.500793 -71.111755 6,025 67 258 64
2019-07-17 17:12:30 GMT 42.500381 -71.113441 6,025 73 261 -192
2019-07-17 17:12:27 GMT 42.499100 -71.119743 6,025 76 261 -64
2019-07-17 17:12:23 GMT 42.498096 -71.125359 6,025 76 261 0
2019-07-17 17:12:20 GMT 42.497025 -71.131622 6,025 76 262 0
2019-07-17 17:12:16 GMT 42.495350 -71.141266 6,025 76 264 -64
2019-07-17 17:12:10 GMT 42.493813 -71.150337 6,025 76 265 -64
2019-07-17 17:12:04 GMT 42.492828 -71.155891 6,050 76 267 0
2019-07-17 17:12:00 GMT 42.491394 -71.164261 6,050 76 267 0
2019-07-17 17:11:56 GMT 42.490509 -71.169174 6,050 76 267 0
2019-07-17 17:11:53 GMT 42.489532 -71.174866 6,025 76 267 64
2019-07-17 17:11:49 GMT 42.488113 -71.182732 6,025 76 268 0
2019-07-17 17:11:46 GMT 42.486740 -71.190285 6,025 76 268 64
2019-07-17 17:11:43 GMT 42.486740 -71.190285 6,025 76 268 0
2019-07-17 17:11:39 GMT 42.485249 -71.198624 6,025 76 268 0
2019-07-17 17:11:36 GMT 42.484505 -71.202904 6,025 76 268 64
2019-07-17 17:11:33 GMT 42.483757 -71.206993 6,025 76 268 64
2019-07-17 17:11:29 GMT 42.482483 -71.213943 6,025 76 269 -128
2019-07-17 17:11:26 GMT 42.481758 -71.218109 6,025 76 269 -128
2019-07-17 17:11:22 GMT 42.479336 -71.231201 6,025 75 271 -128
2019-07-17 17:11:18 GMT 42.479336 -71.231201 6,050 75 271 -64
2019-07-17 17:11:15 GMT 42.478127 -71.237846 6,050 76 271 -128
2019-07-17 17:11:12 GMT 42.477333 -71.242119 6,050 76 271 -192
2019-07-17 17:11:07 GMT 42.476124 -71.249214 6,050 78 273 -64
2019-07-17 17:11:04 GMT 42.475250 -71.254829 6,050 80 275 -64
2019-07-17 17:11:01 GMT 42.474655 -71.259262 6,075 83 279 -256
2019-07-17 17:10:55 GMT 42.473831 -71.268997 6,075 85 282 -384
2019-07-17 17:10:51 GMT 42.473843 -71.278526 6,125 93 289 -768
2019-07-17 17:10:45 GMT 42.474380 -71.287659 6,200 94 289 -1088
2019-07-17 17:10:41 GMT 42.475193 -71.300186 6,275 95 288 -1088
2019-07-17 17:10:35 GMT 42.476212 -71.314438 6,475 95 291 -1216
2019-07-17 17:10:31 GMT 42.476212 -71.314438 6,475 95 289 -1024
2019-07-17 17:10:28 GMT 42.476543 -71.318832 6,475 95 289 -1024
2019-07-17 17:10:24 GMT 42.477100 -71.326752 6,575 95 290 -1088
2019-07-17 17:10:18 GMT 42.477894 -71.337807 6,700 95 291 -1216
2019-07-17 17:10:14 GMT 42.478497 -71.345787 6,750 95 291 -1216
2019-07-17 17:10:10 GMT 42.478870 -71.351219 6,925 95 291 -1216
2019-07-17 17:10:07 GMT 42.479324 -71.356636 6,925 96 292 -1088
2019-07-17 17:10:04 GMT 42.479755 -71.362335 6,925 96 292 -1088
2019-07-17 17:10:00 GMT 42.480377 -71.369934 7,025 96 293 -1216
2019-07-17 17:09:57 GMT 42.480873 -71.375488 7,125 96 295 -1088
2019-07-17 17:09:54 GMT 42.481384 -71.381752 7,175 96 295 -1088
2019-07-17 17:09:49 GMT 42.482437 -71.394905 7,275 96 295 -1152
2019-07-17 17:09:46 GMT 42.482437 -71.394905 7,325 96 295 -1088
2019-07-17 17:09:43 GMT 42.482986 -71.401146 7,350 96 296 -1024
2019-07-17 17:09:38 GMT 42.484268 -71.414879 7,450 97 295 -1088
2019-07-17 17:09:35 GMT 42.484268 -71.414879 7,475 97 295 -1152
2019-07-17 17:09:32 GMT 42.484875 -71.421417 7,550 97 295 -1024
2019-07-17 17:09:28 GMT 42.486412 -71.435341 7,650 98 296 -1152
2019-07-17 17:09:24 GMT 42.486412 -71.435341 7,700 99 297 -1152
2019-07-17 17:09:20 GMT 42.487251 -71.442368 7,725 99 298 -1152
2019-07-17 17:09:17 GMT 42.487839 -71.447090 7,875 99 303 -1344
2019-07-17 17:09:14 GMT 42.489857 -71.463127 8,100 99 309 -1472
2019-07-17 17:09:10 GMT 42.489857 -71.463127 8,025 99 307 -1472
2019-07-17 17:09:07 GMT 42.490311 -71.466690 8,075 99 309 -1472
2019-07-17 17:09:04 GMT 42.491116 -71.472832 8,125 99 310 -1472
2019-07-17 17:09:01 GMT 42.491821 -71.478546 8,175 99 310 -1344
2019-07-17 17:08:57 GMT 42.493023 -71.488487 8,350 99 314 -1408
2019-07-17 17:08:54 GMT 42.493534 -71.492508 8,400 98 313 -1344
2019-07-17 17:08:51 GMT 42.494293 -71.499214 8,475 98 313 -1344
2019-07-17 17:08:43 GMT 42.495724 -71.513718 8,650 96 312 -1280
2019-07-17 17:08:40 GMT 42.496216 -71.519814 8,725 95 310 -896
2019-07-17 17:08:37 GMT 42.496513 -71.523743 8,750 95 310 -896
2019-07-17 17:08:34 GMT 42.496979 -71.530708 8,775 95 308 -768
2019-07-17 17:08:31 GMT 42.497490 -71.537796 8,825 95 306 -768
2019-07-17 17:08:28 GMT 42.497818 -71.541565 8,850 96 303 -832
2019-07-17 17:08:25 GMT 42.498413 -71.548775 8,900 96 301 -896
2019-07-17 17:08:22 GMT 42.498840 -71.553703 8,925 97 296 -896
2019-07-17 17:08:19 GMT 42.499512 -71.560760 9,000 97 291 -64
2019-07-17 17:08:14 GMT 42.500793 -71.573555 9,025 97 292 64
2019-07-17 17:08:11 GMT 42.500793 -71.573555 9,025 97 292 0
2019-07-17 17:08:08 GMT 42.501434 -71.579926 9,025 97 293 64
2019-07-17 17:08:05 GMT 42.501801 -71.583542 9,025 97 294 64
2019-07-17 17:08:02 GMT 42.502335 -71.588959 9,025 97 294 64
2019-07-17 17:07:59 GMT 42.503078 -71.596046 9,025 98 295 0
2019-07-17 17:07:56 GMT 42.503498 -71.599945 9,025 98 295 0
2019-07-17 17:07:53 GMT 42.504196 -71.606522 9,025 98 298 0
2019-07-17 17:07:50 GMT 42.504776 -71.611755 9,025 98 297 0
2019-07-17 17:07:47 GMT 42.505371 -71.617500 9,025 97 298 0
2019-07-17 17:07:44 GMT 42.505966 -71.623245 9,025 97 299 -64
2019-07-17 17:07:41 GMT 42.506428 -71.628174 9,025 97 300 -64
2019-07-17 17:07:38 GMT 42.507156 -71.635727 9,025 97 300 -128
2019-07-17 17:07:35 GMT 42.507706 -71.641907 9,050 96 301 0
2019-07-17 17:07:31 GMT 42.508209 -71.647339 9,050 96 302 64
2019-07-17 17:07:25 GMT 42.509949 -71.666817 9,050 96 306 0
2019-07-17 17:07:20 GMT 42.509949 -71.666817 9,050 96 308 -192
2019-07-17 17:07:17 GMT 42.511368 -71.682922 9,050 96 309 -192
2019-07-17 17:07:13 GMT 42.511368 -71.682922 9,050 96 311 -256
2019-07-17 17:07:09 GMT 42.511971 -71.689751 9,075 96 312 -256
2019-07-17 17:07:06 GMT 42.512573 -71.696716 9,075 96 312 -256
2019-07-17 17:07:02 GMT 42.513153 -71.703079 9,100 96 315 -512
2019-07-17 17:06:58 GMT 42.513748 -71.709946 9,125 96 316 -640
2019-07-17 17:06:55 GMT 42.514202 -71.715363 9,175 96 319 -640
2019-07-17 17:06:52 GMT 42.514668 -71.721115 9,225 96 319 -640
2019-07-17 17:06:49 GMT 42.515461 -71.730438 9,275 96 319 -576
2019-07-17 17:06:46 GMT 42.515785 -71.734398 9,275 95 322 -576
2019-07-17 17:06:42 GMT 42.516403 -71.742531 9,300 95 322 -576
2019-07-17 17:06:39 GMT 42.516907 -71.748711 9,350 95 323 -576
2019-07-17 17:06:36 GMT 42.517365 -71.755142 9,375 96 324 -576
2019-07-17 17:06:31 GMT 42.518066 -71.763718 9,400 96 325 -576
2019-07-17 17:06:28 GMT 42.518810 -71.772018 9,450 97 326 -448
2019-07-17 17:06:25 GMT 42.519241 -71.776428 9,500 98 328 -448
2019-07-17 17:06:22 GMT 42.519745 -71.781601 9,475 98 328 -512
2019-07-17 17:06:16 GMT 42.521141 -71.794632 9,550 98 330 -576
2019-07-17 17:06:12 GMT 42.522949 -71.811134 9,600 98 332 -640
2019-07-17 17:06:09 GMT 42.522949 -71.811134 9,625 98 333 -576
2019-07-17 17:06:05 GMT 42.523514 -71.816414 9,650 98 334 -512
2019-07-17 17:06:02 GMT 42.524536 -71.825928 9,700 98 335 -576
2019-07-17 17:05:58 GMT 42.525234 -71.832191 9,725 98 337 -512
2019-07-17 17:05:55 GMT 42.526108 -71.840225 9,750 97 339 -512
2019-07-17 17:05:50 GMT 42.527054 -71.849434 9,800 97 340 -448
2019-07-17 17:05:47 GMT 42.527702 -71.856209 9,825 97 341 -384
2019-07-17 17:05:43 GMT 42.528442 -71.863945 9,850 97 342 -384
2019-07-17 17:05:40 GMT 42.529495 -71.875427 9,875 97 342 -448
2019-07-17 17:05:34 GMT 42.530312 -71.884247 9,925 97 340 -512
2019-07-17 17:05:31 GMT 42.530682 -71.888527 9,950 97 340 -512
2019-07-17 17:05:28 GMT 42.531288 -71.894852 9,950 97 340 -512
2019-07-17 17:05:25 GMT 42.531845 -71.900986 9,975 97 339 -448
2019-07-17 17:05:22 GMT 42.532406 -71.907112 10,000 96 339 -384
2019-07-17 17:05:19 GMT 42.532974 -71.913757 10,025 96 338 -64
2019-07-17 17:05:16 GMT 42.533848 -71.923279 10,025 96 338 -64
2019-07-17 17:05:13 GMT 42.534313 -71.928764 10,025 96 339 0
2019-07-17 17:05:09 GMT 42.535061 -71.937393 10,025 96 338 0
2019-07-17 17:05:02 GMT 42.536179 -71.951836 10,025 95 339 0
2019-07-17 17:04:59 GMT 42.536503 -71.956429 10,025 95 339 64
2019-07-17 17:04:56 GMT 42.537415 -71.968567 10,025 95 339 0
2019-07-17 17:04:50 GMT 42.538132 -71.978203 10,025 95 339 64
2019-07-17 17:04:46 GMT 42.538742 -71.985664 10,025 96 339 -64
2019-07-17 17:04:42 GMT 42.539528 -71.995705 10,025 96 339 64
2019-07-17 17:04:39 GMT 42.539852 -71.999733 10,025 96 339 -128
2019-07-17 17:04:33 GMT 42.540878 -72.011551 10,025 96 339 -64
2019-07-17 17:04:30 GMT 42.541397 -72.017128 10,025 97 339 0
2019-07-17 17:04:27 GMT 42.541996 -72.023750 10,025 97 338 64
2019-07-17 17:04:24 GMT 42.542633 -72.030609 10,025 97 339 0
2019-07-17 17:04:21 GMT 42.543392 -72.037865 10,025 98 338 64
2019-07-17 17:04:14 GMT 42.545197 -72.053459 10,025 99 338 0
2019-07-17 17:04:11 GMT 42.545673 -72.057541 10,025 99 338 0
2019-07-17 17:04:08 GMT 42.546570 -72.064568 10,025 99 338 -64
2019-07-17 17:04:04 GMT 42.547897 -72.075241 10,025 99 339 -64
2019-07-17 17:04:00 GMT 42.548931 -72.083534 10,025 99 339 -64
2019-07-17 17:03:53 GMT 42.550461 -72.096405 10,025 99 339 -64
2019-07-17 17:03:50 GMT 42.551308 -72.103653 10,025 99 338 -64
2019-07-17 17:03:47 GMT 42.553680 -72.123260 10,025 99 337 64
2019-07-17 17:03:41 GMT 42.553680 -72.123260 10,025 99 337 0
2019-07-17 17:03:37 GMT 42.555267 -72.135857 10,025 99 336 64
2019-07-17 17:03:30 GMT 42.556320 -72.144218 10,025 99 337 0
2019-07-17 17:03:27 GMT 42.557281 -72.151711 10,025 99 337 -64
2019-07-17 17:03:23 GMT 42.558105 -72.158142 10,025 100 337 64
2019-07-17 17:03:20 GMT 42.559174 -72.166313 10,025 100 337 64
2019-07-17 17:03:14 GMT 42.560532 -72.176369 10,025 100 337 128
2019-07-17 17:03:11 GMT 42.561409 -72.182922 10,025 100 337 64
2019-07-17 17:03:08 GMT 42.562042 -72.188042 10,025 100 337 0
2019-07-17 17:03:05 GMT 42.563038 -72.195442 10,000 99 338 -64
2019-07-17 17:03:01 GMT 42.564285 -72.205330 10,025 99 337 64
2019-07-17 17:02:57 GMT 42.565041 -72.211281 10,025 99 337 64
2019-07-17 17:02:53 GMT 42.566250 -72.220673 10,000 99 337 -128
2019-07-17 17:02:50 GMT 42.567039 -72.227119 10,000 99 337 -192
2019-07-17 17:02:47 GMT 42.567856 -72.233238 10,025 99 336 -64
2019-07-17 17:02:44 GMT 42.568855 -72.241241 10,025 100 336 64
2019-07-17 17:02:40 GMT 42.570995 -72.257851 10,025 100 336 64
2019-07-17 17:02:35 GMT 42.570995 -72.257851 10,025 100 336 -128
2019-07-17 17:02:32 GMT 42.571793 -72.263756 10,025 100 336 -64
2019-07-17 17:02:29 GMT 42.573048 -72.273239 10,025 100 336 0
2019-07-17 17:02:26 GMT 42.574768 -72.285919 10,025 100 336 -64
2019-07-17 17:02:23 GMT 42.574768 -72.285919 10,025 100 335 0
2019-07-17 17:02:19 GMT 42.575699 -72.292465 10,025 100 335 0
2019-07-17 17:02:13 GMT 42.577194 -72.303276 10,025 100 334 64
2019-07-17 17:02:10 GMT 42.578247 -72.310699 10,025 100 334 64
2019-07-17 17:02:06 GMT 42.579208 -72.317322 10,025 100 334 64
2019-07-17 17:02:03 GMT 42.580307 -72.325485 10,025 100 335 0
2019-07-17 17:01:59 GMT 42.581238 -72.332512 10,025 100 335 -64
2019-07-17 17:01:56 GMT 42.582497 -72.342033 10,025 99 334 0
2019-07-17 17:01:52 GMT 42.583008 -72.346031 10,025 99 335 0
2019-07-17 17:01:49 GMT 42.584061 -72.354523 10,025 99 335 0
2019-07-17 17:01:44 GMT 42.585148 -72.363747 10,025 99 334 64
2019-07-17 17:01:41 GMT 42.585987 -72.371033 10,025 99 333 -128
2019-07-17 17:01:38 GMT 42.586594 -72.375954 10,050 99 332 -64
2019-07-17 17:01:34 GMT 42.587524 -72.383934 10,025 99 330 0
2019-07-17 17:01:31 GMT 42.588318 -72.390350 10,025 99 328 0
2019-07-17 17:01:28 GMT 42.589062 -72.396774 10,025 99 328 0
2019-07-17 17:01:23 GMT 42.590881 -72.412010 10,025 99 325 -64
2019-07-17 17:01:20 GMT 42.590881 -72.412010 10,025 99 325 -64
2019-07-17 17:01:17 GMT 42.591568 -72.418007 10,025 99 324 0
2019-07-17 17:01:13 GMT 42.592411 -72.425133 10,025 98 320 64
2019-07-17 17:01:10 GMT 42.593296 -72.432922 10,025 98 320 64
2019-07-17 17:01:04 GMT 42.594681 -72.444656 10,025 98 318 64
2019-07-17 17:01:01 GMT 42.595947 -72.455795 10,025 98 317 64
2019-07-17 17:00:54 GMT 42.597107 -72.465942 10,025 98 315 0
2019-07-17 17:00:49 GMT 42.598251 -72.475494 10,025 99 314 0
2019-07-17 17:00:46 GMT 42.598801 -72.480118 10,025 99 313 -64
2019-07-17 17:00:43 GMT 42.599533 -72.486450 10,025 99 313 0
2019-07-17 17:00:39 GMT 42.600464 -72.493988 10,025 99 313 -64
2019-07-17 17:00:36 GMT 42.601227 -72.500465 10,025 99 312 64
2019-07-17 17:00:33 GMT 42.601776 -72.505272 10,025 99 312 64
2019-07-17 17:00:28 GMT 42.603104 -72.516068 10,025 99 312 64
2019-07-17 17:00:23 GMT 42.604282 -72.526054 10,000 99 312 -64
2019-07-17 17:00:18 GMT 42.605255 -72.533859 10,025 99 312 -64
2019-07-17 17:00:15 GMT 42.605988 -72.540039 10,025 99 312 -64
2019-07-17 17:00:12 GMT 42.606750 -72.545921 10,025 99 312 0
2019-07-17 17:00:07 GMT 42.609310 -72.566231 10,025 99 313 64
2019-07-17 17:00:02 GMT 42.609310 -72.566231 10,000 99 313 0
2019-07-17 16:59:55 GMT 42.610847 -72.578239 10,000 99 314 -64
2019-07-17 16:59:51 GMT 42.611893 -72.586731 10,025 99 314 -64
2019-07-17 16:59:46 GMT 42.613686 -72.601364 10,025 99 314 0
2019-07-17 16:59:40 GMT 42.614758 -72.610306 10,025 99 314 0
2019-07-17 16:59:36 GMT 42.615601 -72.617073 10,025 99 314 -64
2019-07-17 16:59:33 GMT 42.616104 -72.621124 10,025 99 314 0
2019-07-17 16:59:30 GMT 42.616806 -72.626656 10,025 99 314 0
2019-07-17 16:59:25 GMT 42.619446 -72.647346 10,025 99 314 64
2019-07-17 16:59:20 GMT 42.619446 -72.647346 10,025 100 314 0
2019-07-17 16:59:15 GMT 42.620590 -72.656334 10,025 100 315 -128
2019-07-17 16:59:12 GMT 42.622482 -72.670792 10,025 100 315 128
2019-07-17 16:59:02 GMT 42.625931 -72.697235 10,000 99 316 64
2019-07-17 16:58:54 GMT 42.625931 -72.697235 10,000 99 317 -64
2019-07-17 16:58:51 GMT 42.626678 -72.703400 10,000 99 317 -192
2019-07-17 16:58:44 GMT 42.628555 -72.718254 10,025 99 317 128
2019-07-17 16:58:41 GMT 42.629093 -72.722916 10,025 99 317 -128
2019-07-17 16:58:31 GMT 42.631748 -72.744568 10,025 99 319 -64
2019-07-17 16:58:23 GMT 42.633564 -72.759514 10,025 99 320 0
2019-07-17 16:58:20 GMT 42.634140 -72.764389 10,025 99 320 0
2019-07-17 16:58:11 GMT 42.636452 -72.783722 10,025 98 320 64
2019-07-17 16:58:08 GMT 42.637287 -72.790878 10,025 98 321 -64
2019-07-17 16:58:02 GMT 42.638496 -72.801476 10,025 98 322 64
2019-07-17 16:57:59 GMT 42.638966 -72.805695 10,025 98 323 128
2019-07-17 16:57:51 GMT 42.641006 -72.824501 10,000 98 326 -64
2019-07-17 16:57:46 GMT 42.642036 -72.834564 10,025 97 327 -64
2019-07-17 16:57:40 GMT 42.642975 -72.843849 10,025 97 329 -64
2019-07-17 16:57:36 GMT 42.643620 -72.850914 10,000 97 329 -64
2019-07-17 16:57:28 GMT 42.645481 -72.869629 10,025 97 333 64
2019-07-17 16:57:20 GMT 42.647297 -72.886810 10,025 98 334 0
2019-07-17 16:57:17 GMT 42.647873 -72.891914 10,025 98 335 -64
2019-07-17 16:57:13 GMT 42.649857 -72.908913 10,025 98 338 -64
2019-07-17 16:57:09 GMT 42.649857 -72.908913 10,025 98 338 -64
2019-07-17 16:57:06 GMT 42.650368 -72.913513 10,025 98 338 0
2019-07-17 16:56:58 GMT 42.652649 -72.933441 10,025 98 339 0
2019-07-17 16:56:55 GMT 42.653137 -72.937798 10,025 98 339 64
2019-07-17 16:56:48 GMT 42.654922 -72.954216 10,025 98 338 0
2019-07-17 16:56:45 GMT 42.655334 -72.957581 10,025 98 338 -64
2019-07-17 16:56:38 GMT 42.657349 -72.975876 10,025 98 337 0
2019-07-17 16:56:35 GMT 42.657722 -72.979111 10,025 98 337 0
2019-07-17 16:56:28 GMT 42.659546 -72.994415 10,025 99 335 -192
2019-07-17 16:56:24 GMT 42.660645 -73.002899 10,050 99 335 -64
2019-07-17 16:56:15 GMT 42.666477 -73.044266 10,025 101 332 -64
2019-07-17 16:56:04 GMT 42.666477 -73.044266 10,025 101 330 192
2019-07-17 16:56:00 GMT 42.667877 -73.053467 10,025 101 329 0
2019-07-17 16:55:57 GMT 42.668850 -73.059853 10,025 100 328 128
2019-07-17 16:55:53 GMT 42.669800 -73.066444 10,025 99 328 64
2019-07-17 16:55:49 GMT 42.670578 -73.072754 10,000 97 328 -128
2019-07-17 16:55:46 GMT 42.671448 -73.081055 10,025 97 327 -64
2019-07-17 16:55:43 GMT 42.671925 -73.086487 10,025 96 326 -256
2019-07-17 16:55:33 GMT 42.673691 -73.107834 10,050 96 317 64
2019-07-17 16:55:25 GMT 42.674950 -73.122704 10,050 96 314 64
2019-07-17 16:55:22 GMT 42.675507 -73.128769 10,025 96 315 128
2019-07-17 16:55:14 GMT 42.676758 -73.143166 10,025 96 313 -64
2019-07-17 16:55:11 GMT 42.677464 -73.151123 10,025 96 313 -64
2019-07-17 16:55:04 GMT 42.678673 -73.163963 10,025 97 313 128
2019-07-17 16:55:01 GMT 42.679367 -73.170692 10,025 97 312 64
2019-07-17 16:54:54 GMT 42.680923 -73.185486 10,025 98 314 64
2019-07-17 16:54:51 GMT 42.681564 -73.191544 10,000 98 315 64
2019-07-17 16:54:48 GMT 42.681793 -73.193542 10,025 98 316 384
2019-07-17 16:54:43 GMT 42.683029 -73.204903 10,000 98 318 128
2019-07-17 16:54:40 GMT 42.683578 -73.210083 10,000 98 320 64
2019-07-17 16:54:37 GMT 42.684448 -73.218010 10,000 98 320 64
2019-07-17 16:54:33 GMT 42.685516 -73.227135 10,000 98 323 64
2019-07-17 16:54:30 GMT 42.686142 -73.232613 10,000 98 327 -128
2019-07-17 16:54:25 GMT 42.687054 -73.240417 10,000 98 329 128
2019-07-17 16:54:21 GMT 42.687836 -73.247284 10,000 98 331 -128
2019-07-17 16:54:18 GMT 42.688683 -73.255051 10,000 98 332 -448
2019-07-17 16:54:15 GMT 42.689568 -73.263351 10,025 98 334 -64
2019-07-17 16:54:09 GMT 42.690857 -73.275253 10,025 98 334 -128
2019-07-17 16:54:01 GMT 42.692596 -73.290855 10,025 98 333 0
2019-07-17 16:53:57 GMT 42.693466 -73.298721 10,025 98 333 64
2019-07-17 16:53:51 GMT 42.695198 -73.313683 10,025 98 333 64
2019-07-17 16:53:47 GMT 42.695892 -73.320007 10,025 98 333 -64
2019-07-17 16:53:38 GMT 42.697899 -73.338341 10,025 98 333 -64
2019-07-17 16:53:29 GMT 42.699692 -73.355591 10,025 97 332 0
2019-07-17 16:53:25 GMT 42.700607 -73.364700 10,000 97 332 0
2019-07-17 16:53:21 GMT 42.701622 -73.375130 10,025 97 330 0
2019-07-17 16:53:17 GMT 42.702347 -73.382179 10,025 97 329 0
2019-07-17 16:53:10 GMT 42.703671 -73.395638 10,025 97 329 -128
2019-07-17 16:53:05 GMT 42.704681 -73.405777 10,025 98 328 128
2019-07-17 16:52:57 GMT 42.706371 -73.421181 10,000 98 327 -64
2019-07-17 16:52:54 GMT 42.707153 -73.428619 10,025 98 327 0
2019-07-17 16:52:47 GMT 42.708698 -73.441689 10,025 99 327 128
2019-07-17 16:52:42 GMT 42.709854 -73.451096 10,000 99 327 128
2019-07-17 16:52:37 GMT 42.711353 -73.462959 10,000 100 327 0
2019-07-17 16:52:31 GMT 42.712967 -73.474998 10,000 100 328 -64
2019-07-17 16:52:27 GMT 42.714237 -73.484482 10,000 100 328 0
2019-07-17 16:52:22 GMT 42.715401 -73.492783 10,000 101 330 -64
2019-07-17 16:52:17 GMT 42.716904 -73.503090 10,025 101 330 0
2019-07-17 16:52:13 GMT 42.718288 -73.512970 10,025 100 330 0
2019-07-17 16:52:06 GMT 42.720200 -73.528435 10,025 98 331 -64
2019-07-17 16:52:02 GMT 42.720840 -73.534431 10,025 97 330 -64
2019-07-17 16:51:58 GMT 42.721546 -73.541908 10,025 96 330 0
2019-07-17 16:51:55 GMT 42.722153 -73.549126 10,025 94 326 64
2019-07-17 16:51:52 GMT 42.722664 -73.555893 10,025 95 328 64
2019-07-17 16:51:44 GMT 42.723679 -73.570946 10,000 94 326 64
2019-07-17 16:51:41 GMT 42.724060 -73.577423 10,000 94 325 64
2019-07-17 16:51:34 GMT 42.724808 -73.591660 10,000 94 326 0
2019-07-17 16:51:31 GMT 42.725281 -73.598724 10,000 95 326 128
2019-07-17 16:51:24 GMT 42.726669 -73.613953 10,000 100 339 0
2019-07-17 16:51:20 GMT 42.727432 -73.620071 10,000 100 336 128
2019-07-17 16:51:15 GMT 42.729088 -73.632477 10,000 100 342 -64
2019-07-17 16:51:10 GMT 42.730347 -73.641869 10,000 100 349 -64
2019-07-17 16:51:04 GMT 42.731880 -73.654007 10,000 99 355 0
2019-07-17 16:50:59 GMT 42.733200 -73.665199 10,025 98 359 0
2019-07-17 16:50:52 GMT 42.735031 -73.681496 10,025 97 360 -128
2019-07-17 16:50:49 GMT 42.735744 -73.688560 10,025 97 361 -64
2019-07-17 16:50:41 GMT 42.737373 -73.704720 10,025 97 359 0
2019-07-17 16:50:38 GMT 42.738304 -73.714554 10,025 97 358 -64
2019-07-17 16:50:31 GMT 42.739517 -73.728416 10,025 96 356 0
2019-07-17 16:50:27 GMT 42.740215 -73.736847 10,025 96 355 -128
2019-07-17 16:50:20 GMT 42.741566 -73.753456 10,025 96 352 0
2019-07-17 16:50:16 GMT 42.742168 -73.761124 10,025 96 351 0
2019-07-17 16:50:10 GMT 42.743427 -73.774857 10,025 97 348 64
2019-07-17 16:50:06 GMT 42.744232 -73.782059 10,025 100 343 -64
2019-07-17 16:50:02 GMT 42.745708 -73.794144 10,025 100 342 0
2019-07-17 16:49:59 GMT 42.746155 -73.797417 10,025 101 342 -64
2019-07-17 16:49:55 GMT 42.747478 -73.806152 10,025 101 342 0
2019-07-17 16:49:49 GMT 42.749542 -73.819321 10,025 102 341 0
2019-07-17 16:49:45 GMT 42.750690 -73.826340 10,025 102 342 64
2019-07-17 16:49:41 GMT 42.752457 -73.837257 10,025 102 342 128
2019-07-17 16:49:38 GMT 42.754368 -73.849014 10,025 102 342 0
2019-07-17 16:49:28 GMT 42.756695 -73.863510 10,025 101 342 64
2019-07-17 16:49:24 GMT 42.757904 -73.871048 10,025 101 342 0
2019-07-17 16:49:17 GMT 42.760094 -73.885612 10,025 101 342 0
2019-07-17 16:49:14 GMT 42.761215 -73.892860 10,025 101 342 64
2019-07-17 16:49:07 GMT 42.763493 -73.907715 10,000 102 341 0
2019-07-17 16:49:03 GMT 42.764786 -73.915764 10,025 102 341 64
2019-07-17 16:48:56 GMT 42.767029 -73.929749 10,025 102 341 64
2019-07-17 16:48:52 GMT 42.768356 -73.937988 10,025 102 341 -320
2019-07-17 16:48:46 GMT 42.770473 -73.951340 10,025 102 340 -256
2019-07-17 16:48:41 GMT 42.772011 -73.960922 10,025 102 340 64
2019-07-17 16:48:36 GMT 42.774078 -73.973572 10,000 102 340 -64
2019-07-17 16:48:32 GMT 42.775688 -73.983017 10,025 102 340 128
2019-07-17 16:48:25 GMT 42.777832 -73.995857 10,025 102 340 -64
2019-07-17 16:48:20 GMT 42.779224 -74.004097 10,025 102 341 256
2019-07-17 16:48:15 GMT 42.781414 -74.017509 10,000 102 341 0
2019-07-17 16:48:10 GMT 42.782730 -74.026001 10,000 102 341 -128
2019-07-17 16:48:03 GMT 42.784904 -74.040184 10,025 101 341 64
2019-07-17 16:48:00 GMT 42.786255 -74.049515 10,025 101 341 -64
2019-07-17 16:47:54 GMT 42.788162 -74.062347 10,025 101 341 -64
2019-07-17 16:47:48 GMT 42.789597 -74.071693 10,025 102 341 64
2019-07-17 16:47:43 GMT 42.791607 -74.083939 10,025 103 342 128
2019-07-17 16:47:39 GMT 42.793098 -74.092499 10,000 103 342 0
2019-07-17 16:47:32 GMT 42.795319 -74.105408 10,025 102 344 -64
2019-07-17 16:47:28 GMT 42.796867 -74.115044 10,025 102 344 64
2019-07-17 16:47:22 GMT 42.798752 -74.127251 10,025 101 344 64
2019-07-17 16:47:17 GMT 42.800453 -74.138618 10,025 101 344 64
2019-07-17 16:47:12 GMT 42.801991 -74.149414 10,025 100 343 0
2019-07-17 16:47:07 GMT 42.803329 -74.159523 10,025 100 343 0
2019-07-17 16:47:01 GMT 42.804932 -74.172012 10,025 99 341 -128
2019-07-17 16:46:57 GMT 42.806076 -74.181557 10,025 99 340 -64
2019-07-17 16:46:51 GMT 42.807495 -74.193359 10,025 99 338 -192
2019-07-17 16:46:46 GMT 42.808834 -74.203957 10,050 100 336 -384
2019-07-17 16:46:41 GMT 42.810413 -74.215195 10,075 101 335 -128
2019-07-17 16:46:35 GMT 42.811996 -74.225136 10,075 102 338 -448
2019-07-17 16:46:30 GMT 42.813950 -74.237106 10,125 102 345 -1280
2019-07-17 16:46:24 GMT 42.815735 -74.248222 10,250 102 350 -1728
2019-07-17 16:46:20 GMT 42.817429 -74.258827 10,400 101 355 -2368
2019-07-17 16:46:15 GMT 42.819305 -74.271240 10,650 101 357 -3008
2019-07-17 16:46:09 GMT 42.820999 -74.282593 10,900 101 359 -3072
2019-07-17 16:46:03 GMT 42.823059 -74.296318 11,225 101 360 -3008
2019-07-17 16:45:59 GMT 42.824566 -74.306488 11,475 101 361 -3136
2019-07-17 16:45:53 GMT 42.826126 -74.317017 11,725 101 362 -2944
2019-07-17 16:45:48 GMT 42.828060 -74.329903 12,000 101 363 -2944
2019-07-17 16:45:42 GMT 42.829880 -74.341675 12,275 101 364 -3072
2019-07-17 16:45:38 GMT 42.831711 -74.353615 12,550 102 366 -3008
2019-07-17 16:45:32 GMT 42.833878 -74.367241 12,850 102 367 -3008
2019-07-17 16:45:26 GMT 42.835602 -74.378204 13,100 101 368 -3072
2019-07-17 16:45:22 GMT 42.837158 -74.388168 13,350 101 368 -3072
2019-07-17 16:45:16 GMT 42.839138 -74.400986 13,650 101 368 -3456
2019-07-17 16:45:06 GMT 42.842697 -74.424774 14,250 101 369 -3200
2019-07-17 16:44:59 GMT 42.845097 -74.440086 14,600 102 370 -3200
2019-07-17 16:44:56 GMT 42.846542 -74.449303 14,825 102 370 -3264
2019-07-17 16:44:51 GMT 42.848122 -74.459450 15,075 102 370 -3584
2019-07-17 16:44:44 GMT 42.850296 -74.473000 15,425 102 370 -3072
2019-07-17 16:44:39 GMT 42.852356 -74.485771 15,725 102 370 -3008
2019-07-17 16:44:35 GMT 42.854176 -74.497246 16,000 102 370 -2816
2019-07-17 16:44:30 GMT 42.855789 -74.507103 16,200 102 370 -2880
2019-07-17 16:44:24 GMT 42.858040 -74.520920 16,500 102 372 -3328
2019-07-17 16:44:13 GMT 42.861832 -74.545364 17,100 101 372 -3072
2019-07-17 16:44:08 GMT 42.863716 -74.558060 17,400 100 372 -3328
2019-07-17 16:44:03 GMT 42.867325 -74.583244 17,800 101 372 -3584
2019-07-17 16:43:57 GMT 42.867325 -74.583244 18,050 101 372 -3200
2019-07-17 16:43:52 GMT 42.870987 -74.607903 18,500 101 373 -2048
2019-07-17 16:43:40 GMT 42.873356 -74.623787 18,775 101 377 -3328
2019-07-17 16:43:33 GMT 42.875198 -74.635811 19,025 101 378 -2752
2019-07-17 16:43:30 GMT 42.878242 -74.656677 20,475 101 354 -3456
2019-07-17 16:43:19 GMT 42.880058 -74.670082 20,050 100 367 -5248
2019-07-17 16:43:14 GMT 42.881516 -74.681099 20,425 100 364 -4928
2019-07-17 16:43:09 GMT 42.883347 -74.694962 20,900 100 358 -3328
2019-07-17 16:43:05 GMT 42.884308 -74.701797 21,050 100 357 -3328
2019-07-17 16:43:00 GMT 42.886669 -74.717949 21,500 101 352 -3520
2019-07-17 16:42:53 GMT 42.888020 -74.727043 21,750 101 352 -3520
2019-07-17 16:42:48 GMT 42.889938 -74.740120 22,325 101 349 -3584
2019-07-17 16:42:39 GMT 42.892906 -74.759415 22,625 102 343 -3328
2019-07-17 16:42:34 GMT 42.894257 -74.767845 22,850 102 342 -3392
2019-07-17 16:42:31 GMT 42.895607 -74.776222 23,075 102 339 -3264
2019-07-17 16:42:26 GMT 42.896988 -74.784698 23,325 102 337 -3968
2019-07-17 16:42:21 GMT 42.898678 -74.794724 23,750 102 334 -2560
2019-07-17 16:42:18 GMT 42.900028 -74.802902 23,875 102 334 -2176
2019-07-17 16:42:14 GMT 42.901054 -74.809242 23,975 102 334 -1728
2019-07-17 16:42:10 GMT 42.902710 -74.819191 24,125 102 337 -2048
2019-07-17 16:42:07 GMT 42.903660 -74.824677 24,400 102 339 -1472
2019-07-17 16:42:04 GMT 42.904358 -74.829056 24,475 102 339 -1728
2019-07-17 16:42:00 GMT 42.905777 -74.837463 24,425 102 339 -1728
2019-07-17 16:41:55 GMT 42.907803 -74.849854 24,575 102 340 -1408
2019-07-17 16:41:50 GMT 42.909153 -74.858025 24,775 102 342 -1472
2019-07-17 16:41:46 GMT 42.910736 -74.867706 25,000 101 355 -192
2019-07-17 16:41:43 GMT 42.911591 -74.873100 24,825 102 344 -1536
2019-07-17 16:41:34 GMT 42.915066 -74.894455 25,000 102 349 64
2019-07-17 16:41:28 GMT 42.917812 -74.911850 24,975 102 349 -192
2019-07-17 16:41:25 GMT 42.917999 -74.913025 25,000 101 352 -192
2019-07-17 16:41:19 GMT 42.920425 -74.928993 25,000 101 354 -64
2019-07-17 16:41:15 GMT 42.921581 -74.936829 25,000 101 355 128
2019-07-17 16:41:08 GMT 42.923218 -74.948280 25,000 100 355 0
2019-07-17 16:41:04 GMT 42.924728 -74.959335 25,000 100 356 -64
2019-07-17 16:41:01 GMT 42.926651 -74.972939 25,000 101 355 -192
2019-07-17 16:40:58 GMT 42.926651 -74.972939 25,000 101 355 -128
2019-07-17 16:40:51 GMT 42.928665 -74.987053 25,000 101 355 64
2019-07-17 16:40:46 GMT 42.930332 -74.998367 25,000 101 355 0
2019-07-17 16:40:43 GMT 42.931229 -75.004364 25,000 101 354 0
2019-07-17 16:40:40 GMT 42.932152 -75.010597 25,000 101 354 -128
2019-07-17 16:40:37 GMT 42.933289 -75.018417 25,000 101 354 -64
2019-07-17 16:40:32 GMT 42.935074 -75.030235 25,000 101 355 64
2019-07-17 16:40:28 GMT 42.936539 -75.040070 25,000 101 355 64
2019-07-17 16:40:23 GMT 42.938095 -75.050163 25,000 101 355 64
2019-07-17 16:40:20 GMT 42.938900 -75.055519 25,000 101 355 64
2019-07-17 16:40:15 GMT 42.940529 -75.066505 25,000 100 355 -64
2019-07-17 16:40:12 GMT 42.941483 -75.072968 25,000 101 355 128
2019-07-17 16:40:09 GMT 42.942444 -75.079544 25,000 101 355 128
2019-07-17 16:40:06 GMT 42.943359 -75.086311 25,000 100 355 -64
2019-07-17 16:40:02 GMT 42.944733 -75.096024 25,000 100 355 0
2019-07-17 16:39:59 GMT 42.945694 -75.102798 25,000 100 354 -64
2019-07-17 16:39:51 GMT 42.948071 -75.119545 25,000 101 354 0
2019-07-17 16:39:45 GMT 42.949795 -75.131378 25,000 101 353 -64
2019-07-17 16:39:39 GMT 42.951748 -75.144722 25,000 101 354 0
2019-07-17 16:39:34 GMT 42.954758 -75.164688 25,000 101 354 0
2019-07-17 16:39:30 GMT 42.954758 -75.164688 25,000 101 354 0
2019-07-17 16:39:27 GMT 42.955891 -75.172249 25,000 101 354 0
2019-07-17 16:39:24 GMT 42.956680 -75.177589 25,000 101 354 0
2019-07-17 16:39:18 GMT 42.958683 -75.191017 25,000 101 354 64
2019-07-17 16:39:15 GMT 42.960251 -75.201416 25,000 101 354 -64
2019-07-17 16:39:07 GMT 42.962173 -75.214958 25,000 100 354 -64
2019-07-17 16:39:03 GMT 42.964828 -75.233864 25,000 101 354 64
2019-07-17 16:38:59 GMT 42.964828 -75.233864 25,000 100 355 64
2019-07-17 16:38:56 GMT 42.965927 -75.241783 25,000 100 355 64
2019-07-17 16:38:53 GMT 42.966366 -75.244972 25,000 101 355 0
2019-07-17 16:38:50 GMT 42.967346 -75.251877 25,000 101 354 64
2019-07-17 16:38:46 GMT 42.968674 -75.261330 25,000 101 355 0
2019-07-17 16:38:43 GMT 42.969669 -75.268250 25,000 101 354 64
2019-07-17 16:38:38 GMT 42.971283 -75.279533 25,000 101 354 0
2019-07-17 16:38:35 GMT 42.973297 -75.293137 25,000 101 354 64
2019-07-17 16:38:24 GMT 42.976822 -75.317024 25,000 101 355 0
2019-07-17 16:38:17 GMT 42.978142 -75.325859 25,000 101 355 64
2019-07-17 16:38:14 GMT 42.979122 -75.332466 25,000 101 354 0
2019-07-17 16:38:11 GMT 42.980099 -75.339005 25,000 101 354 64
2019-07-17 16:38:04 GMT 42.982517 -75.356140 24,975 100 355 -64
2019-07-17 16:38:00 GMT 42.983643 -75.364166 25,000 100 355 -64
2019-07-17 16:37:56 GMT 42.984741 -75.372345 25,000 100 356 64
2019-07-17 16:37:52 GMT 42.985565 -75.378281 25,000 100 356 0
2019-07-17 16:37:47 GMT 42.987362 -75.390930 25,000 100 356 -64
2019-07-17 16:37:44 GMT 42.988174 -75.396805 25,000 100 356 0
2019-07-17 16:37:41 GMT 42.989456 -75.405708 25,000 101 356 0
2019-07-17 16:37:38 GMT 42.990372 -75.412010 25,000 101 356 -64
2019-07-17 16:37:35 GMT 42.991409 -75.419380 25,000 101 356 0
2019-07-17 16:37:31 GMT 42.992615 -75.427399 25,000 101 356 -64
2019-07-17 16:37:27 GMT 42.993713 -75.435127 25,000 101 356 0
2019-07-17 16:37:23 GMT 42.994762 -75.442070 25,000 101 356 0
2019-07-17 16:37:20 GMT 42.996067 -75.451096 25,000 101 356 0
2019-07-17 16:37:14 GMT 42.998108 -75.464897 25,000 101 356 -64
2019-07-17 16:37:10 GMT 43.001450 -75.488022 25,000 101 356 64
2019-07-17 16:37:03 GMT 43.001450 -75.488022 25,000 100 357 0
2019-07-17 16:36:59 GMT 43.002537 -75.496147 25,000 100 357 0
2019-07-17 16:36:53 GMT 43.004608 -75.511078 25,000 100 358 0
2019-07-17 16:36:46 GMT 43.006851 -75.527496 25,000 100 357 0
2019-07-17 16:36:42 GMT 43.007843 -75.534470 25,000 100 357 -64
2019-07-17 16:36:39 GMT 43.008820 -75.541420 25,000 100 357 -128
2019-07-17 16:36:36 GMT 43.010311 -75.551933 25,000 101 357 64
2019-07-17 16:36:32 GMT 43.011101 -75.557487 25,000 101 357 64
2019-07-17 16:36:28 GMT 43.012161 -75.564667 25,000 101 357 -64
2019-07-17 16:36:22 GMT 43.013988 -75.577171 25,000 101 357 0
2019-07-17 16:36:18 GMT 43.015385 -75.586853 25,000 101 357 64
2019-07-17 16:36:13 GMT 43.017014 -75.598007 25,000 101 357 64
2019-07-17 16:36:10 GMT 43.017807 -75.603462 25,000 101 357 0
2019-07-17 16:36:06 GMT 43.019295 -75.613602 25,000 100 357 -64
2019-07-17 16:36:02 GMT 43.020878 -75.624718 25,000 100 357 0
2019-07-17 16:35:59 GMT 43.022041 -75.633347 25,000 100 357 0
2019-07-17 16:35:56 GMT 43.022324 -75.635437 25,000 100 357 64
2019-07-17 16:35:50 GMT 43.025303 -75.657280 25,000 100 358 64
2019-07-17 16:35:43 GMT 43.026764 -75.667824 25,000 100 358 -64
2019-07-17 16:35:37 GMT 43.028328 -75.679253 25,000 100 357 0
2019-07-17 16:35:34 GMT 43.028976 -75.683640 25,000 100 357 0
2019-07-17 16:35:29 GMT 43.030838 -75.696823 25,000 100 357 0
2019-07-17 16:35:25 GMT 43.031754 -75.703278 25,000 101 357 -64
2019-07-17 16:35:21 GMT 43.033401 -75.714577 25,000 101 357 0
2019-07-17 16:35:18 GMT 43.034225 -75.720329 25,000 101 357 0
2019-07-17 16:35:14 GMT 43.037453 -75.742561 25,000 101 357 64
2019-07-17 16:35:09 GMT 43.037453 -75.742561 25,000 101 357 64
2019-07-17 16:35:06 GMT 43.038197 -75.747856 25,000 101 357 64
2019-07-17 16:35:03 GMT 43.040150 -75.761589 25,000 100 358 0
2019-07-17 16:35:00 GMT 43.040150 -75.761589 25,000 100 358 0
2019-07-17 16:34:57 GMT 43.040710 -75.765579 25,000 100 358 0
2019-07-17 16:34:54 GMT 43.044155 -75.791145 25,000 100 358 64
2019-07-17 16:34:47 GMT 43.044155 -75.791145 25,000 100 358 64
2019-07-17 16:34:43 GMT 43.044991 -75.797165 25,000 100 359 0
2019-07-17 16:34:37 GMT 43.047180 -75.813072 25,000 100 358 -64
2019-07-17 16:34:29 GMT 43.049377 -75.828339 25,000 100 358 -64
2019-07-17 16:34:26 GMT 43.050671 -75.837578 25,000 101 358 0
2019-07-17 16:34:23 GMT 43.051300 -75.841942 25,000 101 358 -128
2019-07-17 16:34:13 GMT 43.054596 -75.864815 25,000 101 358 0
2019-07-17 16:34:09 GMT 43.055878 -75.873688 25,000 101 358 0
2019-07-17 16:34:05 GMT 43.057281 -75.883614 25,000 100 359 0
2019-07-17 16:34:02 GMT 43.057938 -75.888123 25,000 100 359 64
2019-07-17 16:33:58 GMT 43.059219 -75.897263 25,000 100 360 128
2019-07-17 16:33:53 GMT 43.060730 -75.908440 25,000 100 359 -64
2019-07-17 16:33:49 GMT 43.062309 -75.920433 25,000 100 360 -64
2019-07-17 16:33:42 GMT 43.064125 -75.934036 25,000 100 360 0
2019-07-17 16:33:38 GMT 43.065399 -75.943375 25,000 100 361 -64
2019-07-17 16:33:33 GMT 43.067383 -75.957771 25,000 100 361 -64
2019-07-17 16:33:30 GMT 43.067711 -75.960060 25,000 100 361 -64
2019-07-17 16:33:27 GMT 43.068558 -75.965988 25,000 100 361 -64
2019-07-17 16:33:23 GMT 43.070084 -75.977066 25,000 100 361 0
2019-07-17 16:33:20 GMT 43.071121 -75.984322 25,000 100 361 -128
2019-07-17 16:33:13 GMT 43.073204 -75.999229 25,000 100 361 0
2019-07-17 16:33:09 GMT 43.074646 -76.009422 25,000 100 361 -128
2019-07-17 16:33:06 GMT 43.075344 -76.014275 25,000 100 362 128
2019-07-17 16:33:00 GMT 43.077068 -76.026375 25,000 100 362 0
2019-07-17 16:32:55 GMT 43.078583 -76.037529 25,000 100 362 0
2019-07-17 16:32:50 GMT 43.080280 -76.050240 25,000 100 362 0
2019-07-17 16:32:47 GMT 43.081161 -76.056778 25,000 100 363 -64
2019-07-17 16:32:44 GMT 43.082153 -76.064545 25,000 100 363 64
2019-07-17 16:32:39 GMT 43.083527 -76.074959 25,000 100 363 0
2019-07-17 16:32:36 GMT 43.084763 -76.084152 25,000 100 363 64
2019-07-17 16:32:30 GMT 43.086502 -76.096802 25,000 100 363 -64
2019-07-17 16:32:26 GMT 43.087463 -76.104019 25,000 100 363 -64
2019-07-17 16:32:18 GMT 43.089935 -76.121841 25,000 100 363 64
2019-07-17 16:32:14 GMT 43.091404 -76.132050 25,000 100 363 0
2019-07-17 16:32:09 GMT 43.093082 -76.144020 25,000 100 363 0
2019-07-17 16:32:06 GMT 43.093731 -76.148529 25,000 100 363 0
2019-07-17 16:32:03 GMT 43.094788 -76.156075 25,000 100 363 0
2019-07-17 16:31:57 GMT 43.096893 -76.170959 25,000 100 364 64
2019-07-17 16:31:54 GMT 43.097946 -76.178688 25,000 100 365 64
2019-07-17 16:31:47 GMT 43.100109 -76.194633 25,000 100 364 0
2019-07-17 16:31:43 GMT 43.100994 -76.201431 25,000 100 364 64
2019-07-17 16:31:36 GMT 43.103027 -76.216949 25,000 100 364 64
2019-07-17 16:31:33 GMT 43.104126 -76.225319 25,000 100 365 0
2019-07-17 16:31:28 GMT 43.105637 -76.236427 25,000 100 364 -64
2019-07-17 16:31:24 GMT 43.107376 -76.249336 25,000 100 364 -128
2019-07-17 16:31:17 GMT 43.108978 -76.260834 25,000 100 363 0
2019-07-17 16:31:14 GMT 43.109573 -76.265366 25,000 100 363 64
2019-07-17 16:31:11 GMT 43.110630 -76.272842 25,000 100 362 -64
2019-07-17 16:31:05 GMT 43.112679 -76.287689 25,000 100 362 0
2019-07-17 16:31:01 GMT 43.114059 -76.297684 25,000 100 361 -64
2019-07-17 16:30:53 GMT 43.116402 -76.314629 25,000 100 362 -64
2019-07-17 16:30:49 GMT 43.117310 -76.321259 25,000 100 362 -64
2019-07-17 16:30:43 GMT 43.119148 -76.335365 25,000 100 361 64
2019-07-17 16:30:40 GMT 43.120361 -76.345039 25,000 100 361 64
2019-07-17 16:30:35 GMT 43.121712 -76.355370 25,000 100 361 0
2019-07-17 16:30:32 GMT 43.122597 -76.362106 25,000 100 361 -64
2019-07-17 16:30:29 GMT 43.123444 -76.368523 25,000 100 361 64
2019-07-17 16:30:22 GMT 43.125526 -76.383888 25,000 100 361 64
2019-07-17 16:30:19 GMT 43.126648 -76.392090 25,000 100 361 64
2019-07-17 16:30:14 GMT 43.128113 -76.402565 25,000 100 360 -128
2019-07-17 16:30:10 GMT 43.130035 -76.416679 25,000 100 360 0
2019-07-17 16:30:03 GMT 43.131683 -76.428566 25,000 100 360 64
2019-07-17 16:30:00 GMT 43.132599 -76.435204 25,000 100 360 64
2019-07-17 16:29:57 GMT 43.133209 -76.439598 25,000 100 360 64
2019-07-17 16:29:54 GMT 43.134430 -76.448425 25,000 100 359 -64
2019-07-17 16:29:51 GMT 43.135345 -76.455330 25,000 100 360 0
2019-07-17 16:29:46 GMT 43.136490 -76.464081 25,000 100 360 64
2019-07-17 16:29:42 GMT 43.137676 -76.473152 25,025 99 360 -128
2019-07-17 16:29:39 GMT 43.138794 -76.482170 25,000 99 361 -128
2019-07-17 16:29:34 GMT 43.140099 -76.492241 25,000 100 360 0
2019-07-17 16:29:31 GMT 43.140797 -76.497673 25,000 100 360 128
2019-07-17 16:29:28 GMT 43.141823 -76.505257 25,000 100 360 0
2019-07-17 16:29:22 GMT 43.143539 -76.518433 25,000 100 360 -64
2019-07-17 16:29:19 GMT 43.144592 -76.526482 25,000 100 360 64
2019-07-17 16:29:15 GMT 43.145645 -76.534149 25,000 100 361 0
2019-07-17 16:29:12 GMT 43.147018 -76.544235 25,000 100 361 128
2019-07-17 16:29:08 GMT 43.149132 -76.559799 24,975 100 360 -64
2019-07-17 16:29:04 GMT 43.149132 -76.559799 25,000 100 361 -64
2019-07-17 16:29:00 GMT 43.150013 -76.566338 25,000 100 361 64
2019-07-17 16:28:57 GMT 43.151318 -76.575691 25,000 100 360 0
2019-07-17 16:28:53 GMT 43.152248 -76.582420 25,000 100 360 0
2019-07-17 16:28:50 GMT 43.153503 -76.591644 25,000 100 360 0
2019-07-17 16:28:47 GMT 43.154114 -76.596230 25,000 100 360 64
2019-07-17 16:28:44 GMT 43.155228 -76.604851 25,000 100 360 0
2019-07-17 16:28:38 GMT 43.156860 -76.617500 25,000 99 360 0
2019-07-17 16:28:34 GMT 43.158161 -76.627480 25,000 99 360 0
2019-07-17 16:28:30 GMT 43.159241 -76.636154 25,000 100 360 -64
2019-07-17 16:28:27 GMT 43.160156 -76.643120 25,000 100 360 -64
2019-07-17 16:28:23 GMT 43.161301 -76.652061 25,000 100 360 0
2019-07-17 16:28:20 GMT 43.162117 -76.658478 25,000 100 360 0
2019-07-17 16:28:15 GMT 43.163887 -76.671753 25,000 100 360 0
2019-07-17 16:28:12 GMT 43.164494 -76.676201 25,000 100 360 0
2019-07-17 16:28:07 GMT 43.165890 -76.686790 25,000 100 360 0
2019-07-17 16:28:04 GMT 43.167023 -76.695175 25,000 100 360 -64
2019-07-17 16:28:00 GMT 43.167938 -76.702293 25,000 100 360 128
2019-07-17 16:27:57 GMT 43.169193 -76.711449 25,000 100 360 -64
2019-07-17 16:27:53 GMT 43.170033 -76.717728 25,000 100 361 0
2019-07-17 16:27:48 GMT 43.171646 -76.729729 25,000 100 360 0
2019-07-17 16:27:44 GMT 43.173157 -76.741226 25,000 100 361 64
2019-07-17 16:27:40 GMT 43.174026 -76.747742 25,000 99 362 64
2019-07-17 16:27:36 GMT 43.175430 -76.759117 25,000 99 362 0
2019-07-17 16:27:27 GMT 43.177963 -76.779106 25,000 99 362 0
2019-07-17 16:27:24 GMT 43.179108 -76.788223 25,000 100 362 -64
2019-07-17 16:27:18 GMT 43.180271 -76.797249 25,000 100 362 64
2019-07-17 16:27:15 GMT 43.182083 -76.810913 25,000 100 362 0
2019-07-17 16:27:07 GMT 43.183392 -76.821114 25,000 100 362 128
2019-07-17 16:27:03 GMT 43.184647 -76.830521 25,000 100 362 0
2019-07-17 16:27:00 GMT 43.185516 -76.837296 25,000 100 362 -64
2019-07-17 16:26:56 GMT 43.186661 -76.846107 25,000 100 362 0
2019-07-17 16:26:52 GMT 43.188187 -76.857475 25,000 100 362 0
2019-07-17 16:26:48 GMT 43.189133 -76.864372 25,000 100 362 -64
2019-07-17 16:26:44 GMT 43.190609 -76.875526 25,000 100 362 0
2019-07-17 16:26:41 GMT 43.191540 -76.882713 25,000 99 363 128
2019-07-17 16:26:37 GMT 43.192608 -76.891350 25,000 99 363 0
2019-07-17 16:26:31 GMT 43.194332 -76.905144 25,000 99 362 -192
2019-07-17 16:26:28 GMT 43.194626 -76.907745 25,000 99 362 -64
2019-07-17 16:26:23 GMT 43.196548 -76.923141 25,000 99 363 64
2019-07-17 16:26:18 GMT 43.197556 -76.931061 25,000 99 363 0
2019-07-17 16:26:15 GMT 43.198849 -76.941307 25,000 100 362 0
2019-07-17 16:26:12 GMT 43.199387 -76.945496 25,000 100 362 -64
2019-07-17 16:26:07 GMT 43.200989 -76.957695 25,000 100 362 -128
2019-07-17 16:26:02 GMT 43.202663 -76.970413 25,000 100 361 -64
2019-07-17 16:25:58 GMT 43.203552 -76.977303 25,000 100 361 64
2019-07-17 16:25:55 GMT 43.204342 -76.983231 25,000 100 361 64
2019-07-17 16:25:52 GMT 43.205429 -76.991676 25,000 100 361 -128
2019-07-17 16:25:49 GMT 43.206158 -76.997154 25,000 100 360 -64
2019-07-17 16:25:42 GMT 43.208450 -77.014801 25,000 100 360 0
2019-07-17 16:25:39 GMT 43.209324 -77.021416 25,000 99 361 0
2019-07-17 16:25:36 GMT 43.210484 -77.030640 25,000 99 361 0
2019-07-17 16:25:31 GMT 43.212395 -77.046135 25,000 99 360 -64
2019-07-17 16:25:24 GMT 43.213230 -77.053139 25,000 99 360 -64
2019-07-17 16:25:21 GMT 43.214127 -77.060661 25,000 99 360 0
2019-07-17 16:25:18 GMT 43.216507 -77.079567 25,000 100 358 192
2019-07-17 16:25:13 GMT 43.218018 -77.091194 25,000 100 359 0
2019-07-17 16:25:08 GMT 43.218018 -77.091194 25,000 100 359 -128
2019-07-17 16:25:04 GMT 43.218842 -77.097198 25,000 100 359 128
2019-07-17 16:24:59 GMT 43.220673 -77.111565 25,000 100 358 0
2019-07-17 16:24:55 GMT 43.221863 -77.120705 25,000 100 358 192
2019-07-17 16:24:51 GMT 43.223755 -77.134880 24,975 100 357 -64
2019-07-17 16:24:48 GMT 43.223755 -77.134880 24,975 100 357 -256
2019-07-17 16:24:42 GMT 43.225204 -77.146057 25,000 99 355 192
2019-07-17 16:24:39 GMT 43.226685 -77.157310 25,000 99 356 64
2019-07-17 16:24:35 GMT 43.227493 -77.163818 25,000 99 355 192
2019-07-17 16:24:31 GMT 43.228363 -77.170975 25,000 99 355 128
2019-07-17 16:24:28 GMT 43.229416 -77.179405 24,975 99 355 0
2019-07-17 16:24:25 GMT 43.230515 -77.188278 25,000 99 355 64
2019-07-17 16:24:20 GMT 43.231388 -77.195503 25,000 99 354 64
2019-07-17 16:24:17 GMT 43.232574 -77.205147 25,000 99 354 -64
2019-07-17 16:24:13 GMT 43.233204 -77.210541 25,000 99 354 192
2019-07-17 16:24:10 GMT 43.234314 -77.219513 25,000 99 354 128
2019-07-17 16:24:06 GMT 43.235687 -77.230309 25,000 99 353 64
2019-07-17 16:24:03 GMT 43.235996 -77.232384 25,000 99 353 64
2019-07-17 16:23:59 GMT 43.237488 -77.244286 24,975 99 352 64
2019-07-17 16:23:55 GMT 43.238342 -77.250748 25,000 99 352 -64
2019-07-17 16:23:52 GMT 43.239208 -77.257690 25,000 100 350 -128
2019-07-17 16:23:48 GMT 43.240585 -77.268318 25,000 99 351 64
2019-07-17 16:23:44 GMT 43.241768 -77.277374 25,000 100 350 -128
2019-07-17 16:23:39 GMT 43.242794 -77.285225 25,000 99 350 -64
2019-07-17 16:23:36 GMT 43.244095 -77.295486 25,000 99 349 -64
2019-07-17 16:23:33 GMT 43.246170 -77.312836 25,000 99 349 128
2019-07-17 16:23:27 GMT 43.247177 -77.321526 25,000 99 348 64
2019-07-17 16:23:24 GMT 43.247177 -77.321526 25,000 99 348 64
2019-07-17 16:23:21 GMT 43.247681 -77.325768 25,000 99 348 -64
2019-07-17 16:23:16 GMT 43.250008 -77.345581 25,000 99 347 256
2019-07-17 16:23:13 GMT 43.250008 -77.345581 25,000 99 347 64
2019-07-17 16:23:07 GMT 43.251450 -77.357285 25,000 99 346 0
2019-07-17 16:23:03 GMT 43.252476 -77.365654 25,000 99 345 -64
2019-07-17 16:23:00 GMT 43.253220 -77.371407 25,000 99 345 256
2019-07-17 16:22:57 GMT 43.254196 -77.379456 25,000 99 345 128
2019-07-17 16:22:53 GMT 43.255268 -77.387825 25,000 99 343 64
2019-07-17 16:22:50 GMT 43.256062 -77.394302 25,000 99 344 64
2019-07-17 16:22:47 GMT 43.256927 -77.400856 25,000 99 344 -64
2019-07-17 16:22:44 GMT 43.257706 -77.407242 25,000 99 344 64
2019-07-17 16:22:41 GMT 43.258530 -77.413689 25,000 99 343 128
2019-07-17 16:22:37 GMT 43.259857 -77.423973 25,000 99 342 64
2019-07-17 16:22:33 GMT 43.260574 -77.429680 25,000 99 342 192
2019-07-17 16:22:29 GMT 43.261734 -77.439369 25,000 99 342 192
2019-07-17 16:22:26 GMT 43.263229 -77.451454 25,000 99 342 128
2019-07-17 16:22:23 GMT 43.263229 -77.451454 25,000 99 342 64
2019-07-17 16:22:20 GMT 43.263836 -77.456818 25,000 99 341 64
2019-07-17 16:22:17 GMT 43.264580 -77.462967 25,000 99 341 128
2019-07-17 16:22:14 GMT 43.265442 -77.470345 25,000 99 340 0
2019-07-17 16:22:11 GMT 43.266396 -77.478134 25,000 99 340 0
2019-07-17 16:22:08 GMT 43.267136 -77.484146 24,975 99 339 0
2019-07-17 16:22:05 GMT 43.268070 -77.491478 25,000 99 338 64
2019-07-17 16:22:02 GMT 43.268600 -77.495834 25,000 99 338 128
2019-07-17 16:21:59 GMT 43.269287 -77.501328 25,000 99 337 0
2019-07-17 16:21:56 GMT 43.270203 -77.508484 25,000 99 337 64
2019-07-17 16:21:53 GMT 43.271027 -77.515442 25,000 99 336 64
2019-07-17 16:21:50 GMT 43.271980 -77.522865 24,975 99 335 64
2019-07-17 16:21:47 GMT 43.272629 -77.528023 24,975 99 333 -128
2019-07-17 16:21:44 GMT 43.273422 -77.534637 25,000 99 334 128
2019-07-17 16:21:41 GMT 43.273865 -77.537865 25,000 99 334 128
2019-07-17 16:21:38 GMT 43.274822 -77.545692 24,975 99 333 -64
2019-07-17 16:21:35 GMT 43.275879 -77.554344 25,000 99 333 -128
2019-07-17 16:21:31 GMT 43.276821 -77.561905 25,000 99 332 128
2019-07-17 16:21:26 GMT 43.278404 -77.575577 24,975 98 330 128
2019-07-17 16:21:20 GMT 43.280136 -77.591003 24,975 98 329 128
2019-07-17 16:21:17 GMT 43.280136 -77.591003 24,975 98 328 64
2019-07-17 16:21:14 GMT 43.280914 -77.598160 24,975 98 327 256
2019-07-17 16:21:09 GMT 43.281712 -77.605461 24,975 98 326 0
2019-07-17 16:21:05 GMT 43.282780 -77.615662 24,975 98 324 64
2019-07-17 16:21:02 GMT 43.283340 -77.620834 24,975 98 324 -64
2019-07-17 16:20:59 GMT 43.283852 -77.625603 24,975 98 322 0
2019-07-17 16:20:56 GMT 43.284691 -77.633446 25,000 98 320 128
2019-07-17 16:20:52 GMT 43.285526 -77.640907 25,000 98 319 64
2019-07-17 16:20:48 GMT 43.286362 -77.648361 24,975 99 315 64
2019-07-17 16:20:45 GMT 43.287155 -77.655228 25,000 99 316 64
2019-07-17 16:20:42 GMT 43.287716 -77.659935 25,000 99 315 128
2019-07-17 16:20:37 GMT 43.288971 -77.670006 24,975 99 312 0
2019-07-17 16:20:34 GMT 43.289764 -77.676018 25,000 99 311 64
2019-07-17 16:20:31 GMT 43.290695 -77.683411 24,975 99 309 64
2019-07-17 16:20:26 GMT 43.291672 -77.691223 24,975 99 309 128
2019-07-17 16:20:22 GMT 43.292885 -77.700935 24,975 99 308 128
2019-07-17 16:20:19 GMT 43.293301 -77.704597 24,975 99 305 128
2019-07-17 16:20:16 GMT 43.294052 -77.710770 24,975 99 305 192
2019-07-17 16:20:12 GMT 43.295071 -77.719246 24,975 99 302 128
2019-07-17 16:20:09 GMT 43.295837 -77.725586 24,975 99 301 64
2019-07-17 16:20:06 GMT 43.296562 -77.731544 24,975 99 300 128
2019-07-17 16:20:03 GMT 43.297165 -77.736511 24,975 99 300 192
2019-07-17 16:20:00 GMT 43.297714 -77.740982 24,950 99 299 128
2019-07-17 16:19:55 GMT 43.298794 -77.749855 24,950 99 297 512
2019-07-17 16:19:52 GMT 43.299725 -77.757637 24,925 99 297 640
2019-07-17 16:19:49 GMT 43.300098 -77.760384 24,900 99 297 704
2019-07-17 16:19:45 GMT 43.301125 -77.768944 24,850 99 296 576
2019-07-17 16:19:42 GMT 43.301914 -77.775620 24,800 99 296 640
2019-07-17 16:19:39 GMT 43.302383 -77.779182 24,800 99 296 704
2019-07-17 16:19:36 GMT 43.303070 -77.785118 24,750 99 295 576
2019-07-17 16:19:31 GMT 43.304382 -77.795761 24,700 99 296 704
2019-07-17 16:19:28 GMT 43.305084 -77.801598 24,650 99 295 640
2019-07-17 16:19:25 GMT 43.305779 -77.807205 24,625 99 295 640
2019-07-17 16:19:21 GMT 43.306618 -77.814262 24,575 99 295 576
2019-07-17 16:19:18 GMT 43.307831 -77.824532 24,550 99 295 512
2019-07-17 16:19:15 GMT 43.308338 -77.828850 24,500 99 295 512
2019-07-17 16:19:08 GMT 43.309937 -77.842667 24,450 98 295 448
2019-07-17 16:19:02 GMT 43.310711 -77.849380 24,400 99 294 512
2019-07-17 16:18:58 GMT 43.311504 -77.855858 24,375 99 294 512
2019-07-17 16:18:55 GMT 43.312271 -77.862404 24,350 99 293 512
2019-07-17 16:18:52 GMT 43.312668 -77.865799 24,325 99 293 512
2019-07-17 16:18:49 GMT 43.313644 -77.873970 24,300 99 293 576
2019-07-17 16:18:46 GMT 43.314205 -77.878677 24,250 99 292 576
2019-07-17 16:18:43 GMT 43.314651 -77.882401 24,250 99 292 576
2019-07-17 16:18:40 GMT 43.315384 -77.888275 24,225 99 292 640
2019-07-17 16:18:37 GMT 43.316162 -77.894852 24,175 99 291 512
2019-07-17 16:18:34 GMT 43.316940 -77.901054 24,150 99 291 576
2019-07-17 16:18:29 GMT 43.318726 -77.915810 24,075 99 290 576
2019-07-17 16:18:26 GMT 43.318726 -77.915810 24,075 99 290 576
2019-07-17 16:18:23 GMT 43.319366 -77.921104 24,050 99 290 576
2019-07-17 16:18:19 GMT 43.320114 -77.927200 24,000 99 290 576
2019-07-17 16:18:12 GMT 43.321747 -77.941101 23,925 99 289 576
2019-07-17 16:18:07 GMT 43.322662 -77.948700 23,900 99 289 512
2019-07-17 16:18:04 GMT 43.323376 -77.954933 23,875 98 289 576
2019-07-17 16:18:01 GMT 43.323795 -77.958328 23,850 98 288 576
2019-07-17 16:17:58 GMT 43.324631 -77.965591 23,800 99 288 576
2019-07-17 16:17:55 GMT 43.325146 -77.970299 23,775 99 287 768
2019-07-17 16:17:52 GMT 43.325794 -77.975662 23,750 99 287 768
2019-07-17 16:17:48 GMT 43.326542 -77.981804 23,700 99 287 832
2019-07-17 16:17:45 GMT 43.327518 -77.990044 23,650 99 287 832
2019-07-17 16:17:40 GMT 43.328568 -77.998779 23,575 99 286 768
2019-07-17 16:17:37 GMT 43.329025 -78.002930 23,525 99 286 704
2019-07-17 16:17:34 GMT 43.329704 -78.008224 23,475 99 286 768
2019-07-17 16:17:31 GMT 43.330452 -78.014503 23,475 99 286 768
2019-07-17 16:17:28 GMT 43.330902 -78.018326 23,450 99 286 704
2019-07-17 16:17:25 GMT 43.331707 -78.024902 23,400 99 286 704
2019-07-17 16:17:19 GMT 43.332779 -78.033592 23,325 99 286 704
2019-07-17 16:17:15 GMT 43.334473 -78.047638 23,275 99 287 768
2019-07-17 16:17:09 GMT 43.335022 -78.052307 23,200 99 287 768
2019-07-17 16:17:06 GMT 43.335850 -78.059235 23,150 99 287 768
2019-07-17 16:17:03 GMT 43.336349 -78.063606 23,125 99 287 832
2019-07-17 16:17:00 GMT 43.336899 -78.068275 23,050 99 287 704
2019-07-17 16:16:57 GMT 43.338272 -78.079964 23,025 99 287 704
2019-07-17 16:16:51 GMT 43.338821 -78.084496 22,975 99 287 704
2019-07-17 16:16:48 GMT 43.339527 -78.090691 22,975 99 286 704
2019-07-17 16:16:44 GMT 43.340508 -78.098732 22,875 99 286 704
2019-07-17 16:16:41 GMT 43.340927 -78.102257 22,850 99 286 768
2019-07-17 16:16:37 GMT 43.341980 -78.111259 22,800 99 286 768
2019-07-17 16:16:34 GMT 43.342667 -78.116814 22,750 99 286 768
2019-07-17 16:16:28 GMT 43.343857 -78.126915 22,675 99 286 768
2019-07-17 16:16:24 GMT 43.344635 -78.133102 22,625 99 286 768
2019-07-17 16:16:20 GMT 43.345413 -78.139557 22,600 99 286 704
2019-07-17 16:16:15 GMT 43.346786 -78.151054 22,525 99 286 768
2019-07-17 16:16:10 GMT 43.347721 -78.159027 22,475 99 286 640
2019-07-17 16:16:07 GMT 43.348389 -78.164467 22,425 99 286 640
2019-07-17 16:16:04 GMT 43.349026 -78.170143 22,400 99 285 704
2019-07-17 16:16:00 GMT 43.349770 -78.176353 22,350 99 285 704
2019-07-17 16:15:57 GMT 43.350632 -78.183823 22,300 99 285 704
2019-07-17 16:15:50 GMT 43.352051 -78.195953 22,225 99 285 704
2019-07-17 16:15:47 GMT 43.352921 -78.203300 22,175 99 285 768
2019-07-17 16:15:43 GMT 43.353539 -78.208397 22,125 99 284 704
2019-07-17 16:15:39 GMT 43.354332 -78.215332 22,075 99 284 768
2019-07-17 16:15:35 GMT 43.355026 -78.221123 21,825 99 283 832
2019-07-17 16:15:32 GMT 43.355961 -78.228867 22,000 99 283 768
2019-07-17 16:15:28 GMT 43.356613 -78.234756 21,950 99 284 768
2019-07-17 16:15:23 GMT 43.358139 -78.247246 21,800 99 283 832
2019-07-17 16:15:17 GMT 43.359009 -78.254723 21,775 99 283 832
2019-07-17 16:15:14 GMT 43.359467 -78.258614 21,725 99 283 832
2019-07-17 16:15:11 GMT 43.360149 -78.264244 21,725 99 283 832
2019-07-17 16:15:08 GMT 43.360847 -78.270462 21,675 99 283 704
2019-07-17 16:15:02 GMT 43.361965 -78.279877 21,575 98 283 832
2019-07-17 16:14:58 GMT 43.362991 -78.288635 21,525 98 283 832
2019-07-17 16:14:50 GMT 43.364292 -78.300278 21,450 98 283 832
2019-07-17 16:14:47 GMT 43.365005 -78.306396 21,400 98 283 896
2019-07-17 16:14:40 GMT 43.366608 -78.320641 21,300 98 283 832
2019-07-17 16:14:37 GMT 43.367523 -78.328621 21,200 98 283 896
2019-07-17 16:14:31 GMT 43.368484 -78.337311 21,125 98 283 896
2019-07-17 16:14:28 GMT 43.368896 -78.341080 21,100 98 283 832
2019-07-17 16:14:25 GMT 43.369583 -78.347466 21,075 98 283 896
2019-07-17 16:14:18 GMT 43.371552 -78.365158 20,925 98 283 1024
2019-07-17 16:14:14 GMT 43.371552 -78.365158 20,900 98 283 1088
2019-07-17 16:14:10 GMT 43.372559 -78.374420 20,800 98 283 1024
2019-07-17 16:14:06 GMT 43.373245 -78.380486 20,725 98 282 960
2019-07-17 16:14:03 GMT 43.373882 -78.386406 20,675 98 282 960
2019-07-17 16:13:58 GMT 43.374847 -78.395370 20,600 98 282 960
2019-07-17 16:13:55 GMT 43.375351 -78.400032 20,550 98 282 960
2019-07-17 16:13:52 GMT 43.375946 -78.405525 20,525 98 282 960
2019-07-17 16:13:49 GMT 43.376629 -78.411972 20,450 98 283 960
2019-07-17 16:13:44 GMT 43.377377 -78.418709 20,425 98 283 960
2019-07-17 16:13:41 GMT 43.377979 -78.424072 20,375 98 282 1024
2019-07-17 16:13:37 GMT 43.378922 -78.432228 20,275 99 281 1024
2019-07-17 16:13:34 GMT 43.379608 -78.438004 20,225 99 280 1024
2019-07-17 16:13:30 GMT 43.380249 -78.443146 20,175 99 281 960
2019-07-17 16:13:27 GMT 43.380959 -78.448860 20,100 100 280 960
2019-07-17 16:13:23 GMT 43.381897 -78.455605 19,950 100 279 896
2019-07-17 16:13:20 GMT 43.382858 -78.462181 20,000 102 278 960
2019-07-17 16:13:17 GMT 43.383682 -78.467361 19,950 102 277 1024
2019-07-17 16:13:13 GMT 43.384731 -78.473381 19,900 103 277 1024
2019-07-17 16:13:09 GMT 43.386063 -78.480453 19,800 105 275 960
2019-07-17 16:13:06 GMT 43.387012 -78.485085 19,775 106 275 896
2019-07-17 16:13:02 GMT 43.388363 -78.491104 19,725 107 274 960
2019-07-17 16:12:58 GMT 43.390133 -78.498886 19,650 107 273 960
2019-07-17 16:12:55 GMT 43.390915 -78.502426 19,600 107 273 1024
2019-07-17 16:12:52 GMT 43.392460 -78.509148 19,550 107 273 1024
2019-07-17 16:12:47 GMT 43.394039 -78.516281 19,450 107 272 1024
2019-07-17 16:12:44 GMT 43.395035 -78.520821 19,425 107 272 1024
2019-07-17 16:12:40 GMT 43.396820 -78.528679 19,350 106 270 960
2019-07-17 16:12:37 GMT 43.397964 -78.533791 19,275 107 269 1088
2019-07-17 16:12:34 GMT 43.398697 -78.537140 19,250 107 269 1280
2019-07-17 16:12:30 GMT 43.400513 -78.545311 19,125 107 269 1216
2019-07-17 16:12:27 GMT 43.401722 -78.550743 19,100 107 269 1280
2019-07-17 16:12:24 GMT 43.402699 -78.554993 19,025 107 268 1216
2019-07-17 16:12:20 GMT 43.405243 -78.566490 18,950 107 268 1216
2019-07-17 16:12:17 GMT 43.405243 -78.566490 18,900 107 268 1152
2019-07-17 16:12:13 GMT 43.406479 -78.571983 18,825 107 267 1088
2019-07-17 16:12:09 GMT 43.408192 -78.579712 18,725 106 267 1152
2019-07-17 16:12:06 GMT 43.409264 -78.584618 18,675 106 267 1216
2019-07-17 16:12:03 GMT 43.410381 -78.589455 18,625 107 267 1216
2019-07-17 16:12:00 GMT 43.410938 -78.592072 18,400 107 266 1216
2019-07-17 16:11:57 GMT 43.411972 -78.596703 18,525 107 266 1152
2019-07-17 16:11:53 GMT 43.413940 -78.605453 18,400 107 266 1216
2019-07-17 16:11:50 GMT 43.415085 -78.610435 18,350 107 266 1216
2019-07-17 16:11:47 GMT 43.415680 -78.613052 18,325 107 266 1216
2019-07-17 16:11:44 GMT 43.416946 -78.618820 18,250 107 266 1216
2019-07-17 16:11:40 GMT 43.419479 -78.630043 18,150 107 266 1216
2019-07-17 16:11:30 GMT 43.421951 -78.640900 17,950 107 266 1280
2019-07-17 16:11:27 GMT 43.423187 -78.646393 17,925 107 266 1280
2019-07-17 16:11:22 GMT 43.425091 -78.654854 17,775 107 266 1280
2019-07-17 16:11:19 GMT 43.426117 -78.659363 17,700 107 266 1280
2019-07-17 16:11:16 GMT 43.427185 -78.664139 17,650 107 266 1280
2019-07-17 16:11:12 GMT 43.428406 -78.669518 17,575 107 266 1280
2019-07-17 16:11:09 GMT 43.429840 -78.675774 17,450 107 266 1344
2019-07-17 16:11:06 GMT 43.431061 -78.681335 17,475 107 266 1280
2019-07-17 16:11:02 GMT 43.432076 -78.685783 17,325 107 266 1344
2019-07-17 16:10:59 GMT 43.433563 -78.692451 17,275 107 266 1280
2019-07-17 16:10:56 GMT 43.434540 -78.696831 17,175 107 266 1280
2019-07-17 16:10:53 GMT 43.435867 -78.702736 17,125 107 266 1280
2019-07-17 16:10:50 GMT 43.436821 -78.706841 17,075 107 266 1280
2019-07-17 16:10:45 GMT 43.438732 -78.715469 16,950 107 266 1344
2019-07-17 16:10:40 GMT 43.440315 -78.722603 16,850 107 266 1344
2019-07-17 16:10:37 GMT 43.441360 -78.727386 16,800 107 266 1344
2019-07-17 16:10:34 GMT 43.442455 -78.732346 16,700 107 266 1344
2019-07-17 16:10:30 GMT 43.443851 -78.738625 16,625 106 266 1408
2019-07-17 16:10:27 GMT 43.444969 -78.743660 16,525 106 267 1344
2019-07-17 16:10:24 GMT 43.446224 -78.749344 16,450 106 267 1408
2019-07-17 16:10:21 GMT 43.447128 -78.753510 16,400 106 267 1408
2019-07-17 16:10:16 GMT 43.448833 -78.761375 16,300 106 267 1408
2019-07-17 16:10:13 GMT 43.449875 -78.766159 16,225 106 267 1408
2019-07-17 16:10:09 GMT 43.451347 -78.772957 16,100 106 267 1408
2019-07-17 16:10:06 GMT 43.453674 -78.783676 15,975 106 267 1408
2019-07-17 16:10:02 GMT 43.454746 -78.788582 15,875 106 267 1408
2019-07-17 16:09:55 GMT 43.456329 -78.795906 15,775 106 267 1408
2019-07-17 16:09:52 GMT 43.459263 -78.809380 15,600 106 268 1536
2019-07-17 16:09:47 GMT 43.459263 -78.809380 15,575 106 268 1536
2019-07-17 16:09:44 GMT 43.460358 -78.814575 15,500 106 268 1536
2019-07-17 16:09:40 GMT 43.461449 -78.819511 15,450 106 268 1600
2019-07-17 16:09:36 GMT 43.463264 -78.828018 15,275 106 268 1536
2019-07-17 16:09:33 GMT 43.464157 -78.832207 15,150 106 268 1408
2019-07-17 16:09:23 GMT 43.467873 -78.849403 14,975 106 267 1344
2019-07-17 16:09:20 GMT 43.468552 -78.852516 14,925 106 267 1280
2019-07-17 16:09:12 GMT 43.471069 -78.864204 14,775 106 266 1408
2019-07-17 16:09:09 GMT 43.472527 -78.870979 14,650 106 266 1472
2019-07-17 16:09:02 GMT 43.474857 -78.881836 14,475 106 266 1600
2019-07-17 16:08:59 GMT 43.476105 -78.887589 14,400 106 266 1536
2019-07-17 16:08:50 GMT 43.479034 -78.901001 14,200 106 265 1472
2019-07-17 16:08:47 GMT 43.480179 -78.906364 14,100 106 264 1536
2019-07-17 16:08:39 GMT 43.482651 -78.917992 13,975 106 264 1536
2019-07-17 16:08:36 GMT 43.483932 -78.923927 13,825 106 263 1536
2019-07-17 16:08:29 GMT 43.487705 -78.941475 13,625 106 261 1408
2019-07-17 16:08:25 GMT 43.487705 -78.941475 13,550 106 261 1408
2019-07-17 16:08:20 GMT 43.489243 -78.948586 13,450 106 261 1408
2019-07-17 16:08:17 GMT 43.490616 -78.954910 13,350 106 259 1472
2019-07-17 16:08:14 GMT 43.491669 -78.959633 13,275 106 258 1408
2019-07-17 16:08:11 GMT 43.492859 -78.965195 13,200 106 257 1408
2019-07-17 16:08:07 GMT 43.493683 -78.968895 13,100 106 256 1536
2019-07-17 16:08:04 GMT 43.495239 -78.975983 13,025 106 256 1472
2019-07-17 16:08:00 GMT 43.496315 -78.980911 12,025 106 255 1536
2019-07-17 16:07:57 GMT 43.497295 -78.985550 12,025 106 255 1536
2019-07-17 16:07:53 GMT 43.499016 -78.993332 12,750 106 253 1408
2019-07-17 16:07:49 GMT 43.500046 -78.998024 12,675 106 252 1344
2019-07-17 16:07:46 GMT 43.501064 -79.002686 12,600 106 251 1408
2019-07-17 16:07:42 GMT 43.502747 -79.010284 12,500 106 249 1344
2019-07-17 16:07:39 GMT 43.503525 -79.013733 12,450 106 249 1472
2019-07-17 16:07:35 GMT 43.504578 -79.018463 12,400 106 248 1472
2019-07-17 16:07:31 GMT 43.506325 -79.026360 12,250 106 246 1280
2019-07-17 16:07:28 GMT 43.507114 -79.029953 12,200 107 245 1344
2019-07-17 16:07:24 GMT 43.508373 -79.035446 12,125 107 244 1408
2019-07-17 16:07:20 GMT 43.509796 -79.041901 12,000 107 241 1536
2019-07-17 16:07:16 GMT 43.511448 -79.049377 11,875 106 240 1472
2019-07-17 16:07:07 GMT 43.514008 -79.060936 11,650 106 235 1152
2019-07-17 16:07:03 GMT 43.515263 -79.066772 11,625 106 233 1088
2019-07-17 16:07:00 GMT 43.517174 -79.075729 11,550 105 229 1408
2019-07-17 16:06:57 GMT 43.517990 -79.079720 11,500 105 227 1472
2019-07-17 16:06:53 GMT 43.517990 -79.079720 11,475 105 227 1472
2019-07-17 16:06:46 GMT 43.520199 -79.090446 11,300 105 225 1984
2019-07-17 16:06:41 GMT 43.521698 -79.097664 11,150 106 224 2112
2019-07-17 16:06:36 GMT 43.523209 -79.104820 10,875 105 225 2048
2019-07-17 16:06:33 GMT 43.523922 -79.108299 10,600 105 225 2112
2019-07-17 16:06:29 GMT 43.525131 -79.114120 10,650 105 225 2112
2019-07-17 16:06:25 GMT 43.526112 -79.118889 10,550 105 225 2112
2019-07-17 16:06:22 GMT 43.526901 -79.122948 10,300 105 226 2176
2019-07-17 16:06:19 GMT 43.527832 -79.127396 10,325 105 226 2176
2019-07-17 16:06:15 GMT 43.529182 -79.134064 10,150 105 227 2240
2019-07-17 16:06:12 GMT 43.530067 -79.138382 10,025 105 227 2176
2019-07-17 16:06:09 GMT 43.530903 -79.142563 9,925 105 227 2176
2019-07-17 16:06:04 GMT 43.532043 -79.148193 9,775 105 228 2240
2019-07-17 16:06:01 GMT 43.532913 -79.152275 9,625 105 229 2240
2019-07-17 16:05:58 GMT 43.533875 -79.157066 9,525 105 229 2304
2019-07-17 16:05:54 GMT 43.535233 -79.163559 9,300 105 230 2368
2019-07-17 16:05:51 GMT 43.535980 -79.167229 9,225 106 232 2304
2019-07-17 16:05:46 GMT 43.538498 -79.179298 8,975 106 233 2432
2019-07-17 16:05:43 GMT 43.538498 -79.179298 8,850 106 234 2496
2019-07-17 16:05:40 GMT 43.539459 -79.183899 8,775 106 235 2688
2019-07-17 16:05:37 GMT 43.540401 -79.188148 8,600 106 236 2944
2019-07-17 16:05:32 GMT 43.541885 -79.195206 8,350 106 241 3072
2019-07-17 16:05:26 GMT 43.543522 -79.202660 8,100 106 245 704
2019-07-17 16:05:22 GMT 43.545151 -79.210312 7,975 106 241 512
2019-07-17 16:05:19 GMT 43.545940 -79.214172 7,975 106 239 576
2019-07-17 16:05:16 GMT 43.546875 -79.218582 7,975 106 235 384
2019-07-17 16:05:10 GMT 43.548752 -79.227455 7,950 105 226 1152
2019-07-17 16:05:07 GMT 43.549152 -79.229607 7,750 105 215 1984
2019-07-17 16:05:03 GMT 43.550583 -79.236595 7,825 105 214 2368
2019-07-17 16:04:59 GMT 43.551620 -79.241707 7,725 105 214 2240
2019-07-17 16:04:56 GMT 43.552231 -79.244835 7,625 105 214 2368
2019-07-17 16:04:53 GMT 43.554554 -79.256027 7,375 105 214 2432
2019-07-17 16:04:48 GMT 43.554554 -79.256027 7,375 105 214 2496
2019-07-17 16:04:45 GMT 43.555298 -79.259750 7,175 105 216 2560
2019-07-17 16:04:42 GMT 43.555996 -79.263222 7,050 105 216 2496
2019-07-17 16:04:39 GMT 43.556992 -79.267891 6,900 105 217 2432
2019-07-17 16:04:36 GMT 43.557678 -79.271400 6,800 105 217 2432
2019-07-17 16:04:32 GMT 43.558960 -79.277794 6,275 105 218 2432
2019-07-17 16:04:28 GMT 43.560280 -79.284538 6,375 105 218 2432
2019-07-17 16:04:25 GMT 43.560425 -79.285332 6,375 105 218 2432
2019-07-17 16:04:20 GMT 43.561844 -79.292419 6,150 104 219 2496
2019-07-17 16:04:15 GMT 43.563263 -79.299828 5,975 104 219 2496
2019-07-17 16:04:10 GMT 43.564499 -79.306595 5,775 104 219 2368
2019-07-17 16:04:07 GMT 43.565506 -79.311836 5,550 104 218 2432
2019-07-17 16:04:04 GMT 43.566010 -79.314713 5,475 104 218 2432
2019-07-17 16:03:58 GMT 43.567261 -79.321487 5,250 104 218 2368
2019-07-17 16:03:55 GMT 43.568146 -79.326256 5,100 104 218 2432
2019-07-17 16:03:52 GMT 43.568985 -79.330833 4,975 104 218 2368
2019-07-17 16:03:49 GMT 43.569588 -79.334038 4,875 104 218 2368
2019-07-17 16:03:46 GMT 43.570614 -79.339600 4,700 104 218 2368
2019-07-17 16:03:42 GMT 43.571545 -79.344566 4,550 104 217 2368
2019-07-17 16:03:39 GMT 43.572430 -79.349411 4,400 104 218 2304
2019-07-17 16:03:34 GMT 43.573315 -79.353989 4,025 104 218 2432
2019-07-17 16:03:31 GMT 43.574203 -79.358719 4,150 104 218 2368
2019-07-17 16:03:27 GMT 43.575256 -79.364212 3,975 104 218 2432
2019-07-17 16:03:24 GMT 43.576107 -79.368698 3,825 104 217 2496
2019-07-17 16:03:21 GMT 43.576950 -79.373222 3,675 104 218 2496
2019-07-17 16:03:16 GMT 43.578003 -79.378906 3,400 104 219 2304
2019-07-17 16:03:13 GMT 43.578781 -79.382927 3,400 105 218 2304
2019-07-17 16:03:09 GMT 43.581272 -79.394920 3,075 107 218 2368
2019-07-17 16:03:05 GMT 43.581272 -79.394920 3,025 107 218 2368
2019-07-17 16:03:01 GMT 43.582390 -79.399567 2,900 109 218 2240

Making use of Plane Finder data

You are free to use the raw flight data, aircraft information and images provided in this report for your own purposes provided the data is correctly attributed to Plane Finder. We ask that you please credit Plane Finder and link to planefinder.net in close proximity to the content.

Optionally one of the following logos (no smaller then 150x24px) can be used and must link to planefinder.net

Embedding the Plane Finder map

You are welcome to embed the Plane Finder playback map on your website to offer visitors a more interactive experience. We suggest using the following HTML code:

<iframe src="//planefinder.net/data/report/PD939-C-GLQO-7700-squawk-2019-07-17/map" width="800" height="600" seamless="seamless"></iframe>

Where our data comes from

Plane Finder has a global network of data feeds and antenna radars that receive data broadcast directly from aircraft. The primary technologies used are ADS-B and MLAT. We also show feeds from the FAA and a FLARM glider feed.

Click here to find out more about the Plane Finder network.

How we collect our data